<?xml version="1.0" encoding="UTF-8" standalone="no" ?>
<gpx xmlns="http://www.topografix.com/GPX/1/1" xmlns:xsi="http://www.w3.org/2001/XMLSchema-instance" xsi:schemaLocation="http://www.topografix.com/GPX/1/1 http://www.topografix.com/GPX/1/1/gpx.xsd" version="1.1" creator="VisuGPX - https://www.visugpx.com">
  <metadata>
    <name>Circuit du 17 Mai 2012</name>
    <desc><![CDATA[Déjà fait l\'année dernière, toujours aussi bien]]></desc>
  </metadata>
  <trk>
    <name><![CDATA[ACTIVE LOG: 17 MAI 2012 10:18]]></name>
    <trkseg>
      <trkpt lat="43.55218" lon="6.79417">
        <ele>112.61</ele>
        <time>2012-05-17T08:18:46Z</time>
      </trkpt>
      <trkpt lat="43.55217" lon="6.79418">
        <ele>113.57</ele>
        <time>2012-05-17T08:19:07Z</time>
      </trkpt>
      <trkpt lat="43.55217" lon="6.79418">
        <ele>113.09</ele>
        <time>2012-05-17T08:19:08Z</time>
      </trkpt>
      <trkpt lat="43.5522" lon="6.79411">
        <ele>113.57</ele>
        <time>2012-05-17T08:19:13Z</time>
      </trkpt>
      <trkpt lat="43.55236" lon="6.79377">
        <ele>115.5</ele>
        <time>2012-05-17T08:19:32Z</time>
      </trkpt>
      <trkpt lat="43.55244" lon="6.79357">
        <ele>116.46</ele>
        <time>2012-05-17T08:19:45Z</time>
      </trkpt>
      <trkpt lat="43.55249" lon="6.79348">
        <ele>117.42</ele>
        <time>2012-05-17T08:20:07Z</time>
      </trkpt>
      <trkpt lat="43.55252" lon="6.79337">
        <ele>117.9</ele>
        <time>2012-05-17T08:20:20Z</time>
      </trkpt>
      <trkpt lat="43.55263" lon="6.79319">
        <ele>117.42</ele>
        <time>2012-05-17T08:20:42Z</time>
      </trkpt>
      <trkpt lat="43.55291" lon="6.79295">
        <ele>115.5</ele>
        <time>2012-05-17T08:20:48Z</time>
      </trkpt>
      <trkpt lat="43.55342" lon="6.79288">
        <ele>116.94</ele>
        <time>2012-05-17T08:21:01Z</time>
      </trkpt>
      <trkpt lat="43.5537" lon="6.79315">
        <ele>116.94</ele>
        <time>2012-05-17T08:21:12Z</time>
      </trkpt>
      <trkpt lat="43.55396" lon="6.79294">
        <ele>119.34</ele>
        <time>2012-05-17T08:21:25Z</time>
      </trkpt>
      <trkpt lat="43.55426" lon="6.79237">
        <ele>117.9</ele>
        <time>2012-05-17T08:21:39Z</time>
      </trkpt>
      <trkpt lat="43.55434" lon="6.79236">
        <ele>117.9</ele>
        <time>2012-05-17T08:21:41Z</time>
      </trkpt>
      <trkpt lat="43.5545" lon="6.79242">
        <ele>117.42</ele>
        <time>2012-05-17T08:21:45Z</time>
      </trkpt>
      <trkpt lat="43.55486" lon="6.79231">
        <ele>116.46</ele>
        <time>2012-05-17T08:21:54Z</time>
      </trkpt>
      <trkpt lat="43.55493" lon="6.79195">
        <ele>117.42</ele>
        <time>2012-05-17T08:22:02Z</time>
      </trkpt>
      <trkpt lat="43.55495" lon="6.79171">
        <ele>117.9</ele>
        <time>2012-05-17T08:22:09Z</time>
      </trkpt>
      <trkpt lat="43.5553" lon="6.79142">
        <ele>117.9</ele>
        <time>2012-05-17T08:22:23Z</time>
      </trkpt>
      <trkpt lat="43.55541" lon="6.79145">
        <ele>118.86</ele>
        <time>2012-05-17T08:22:28Z</time>
      </trkpt>
      <trkpt lat="43.5555" lon="6.79142">
        <ele>120.3</ele>
        <time>2012-05-17T08:22:34Z</time>
      </trkpt>
      <trkpt lat="43.55556" lon="6.79098">
        <ele>121.26</ele>
        <time>2012-05-17T08:22:50Z</time>
      </trkpt>
      <trkpt lat="43.55566" lon="6.7905">
        <ele>120.78</ele>
        <time>2012-05-17T08:23:04Z</time>
      </trkpt>
      <trkpt lat="43.55573" lon="6.79025">
        <ele>120.78</ele>
        <time>2012-05-17T08:23:08Z</time>
      </trkpt>
      <trkpt lat="43.55577" lon="6.79014">
        <ele>120.78</ele>
        <time>2012-05-17T08:23:10Z</time>
      </trkpt>
      <trkpt lat="43.55608" lon="6.7895">
        <ele>121.26</ele>
        <time>2012-05-17T08:23:25Z</time>
      </trkpt>
      <trkpt lat="43.55615" lon="6.78938">
        <ele>121.26</ele>
        <time>2012-05-17T08:23:28Z</time>
      </trkpt>
      <trkpt lat="43.55625" lon="6.78926">
        <ele>120.78</ele>
        <time>2012-05-17T08:23:31Z</time>
      </trkpt>
      <trkpt lat="43.55657" lon="6.78881">
        <ele>121.26</ele>
        <time>2012-05-17T08:23:43Z</time>
      </trkpt>
      <trkpt lat="43.55673" lon="6.78878">
        <ele>121.26</ele>
        <time>2012-05-17T08:23:47Z</time>
      </trkpt>
      <trkpt lat="43.55707" lon="6.78841">
        <ele>122.71</ele>
        <time>2012-05-17T08:24:01Z</time>
      </trkpt>
      <trkpt lat="43.55705" lon="6.7879">
        <ele>123.67</ele>
        <time>2012-05-17T08:24:14Z</time>
      </trkpt>
      <trkpt lat="43.55714" lon="6.78778">
        <ele>124.15</ele>
        <time>2012-05-17T08:24:19Z</time>
      </trkpt>
      <trkpt lat="43.55753" lon="6.78778">
        <ele>127.03</ele>
        <time>2012-05-17T08:24:34Z</time>
      </trkpt>
      <trkpt lat="43.55793" lon="6.78768">
        <ele>127.03</ele>
        <time>2012-05-17T08:24:46Z</time>
      </trkpt>
      <trkpt lat="43.55833" lon="6.78783">
        <ele>127.99</ele>
        <time>2012-05-17T08:24:59Z</time>
      </trkpt>
      <trkpt lat="43.55851" lon="6.78795">
        <ele>128.95</ele>
        <time>2012-05-17T08:25:08Z</time>
      </trkpt>
      <trkpt lat="43.5587" lon="6.78829">
        <ele>129.43</ele>
        <time>2012-05-17T08:25:20Z</time>
      </trkpt>
      <trkpt lat="43.55885" lon="6.78854">
        <ele>127.51</ele>
        <time>2012-05-17T08:25:30Z</time>
      </trkpt>
      <trkpt lat="43.55901" lon="6.78866">
        <ele>126.55</ele>
        <time>2012-05-17T08:25:37Z</time>
      </trkpt>
      <trkpt lat="43.55919" lon="6.78853">
        <ele>124.15</ele>
        <time>2012-05-17T08:25:41Z</time>
      </trkpt>
      <trkpt lat="43.55937" lon="6.78847">
        <ele>122.71</ele>
        <time>2012-05-17T08:25:44Z</time>
      </trkpt>
      <trkpt lat="43.5595" lon="6.78852">
        <ele>122.71</ele>
        <time>2012-05-17T08:25:47Z</time>
      </trkpt>
      <trkpt lat="43.55981" lon="6.78873">
        <ele>127.03</ele>
        <time>2012-05-17T08:26:00Z</time>
      </trkpt>
      <trkpt lat="43.56012" lon="6.78895">
        <ele>129.92</ele>
        <time>2012-05-17T08:26:12Z</time>
      </trkpt>
      <trkpt lat="43.56034" lon="6.78907">
        <ele>131.36</ele>
        <time>2012-05-17T08:26:24Z</time>
      </trkpt>
      <trkpt lat="43.56041" lon="6.78904">
        <ele>131.36</ele>
        <time>2012-05-17T08:26:29Z</time>
      </trkpt>
      <trkpt lat="43.56043" lon="6.78904">
        <ele>131.36</ele>
        <time>2012-05-17T08:26:31Z</time>
      </trkpt>
      <trkpt lat="43.56045" lon="6.78903">
        <ele>131.36</ele>
        <time>2012-05-17T08:26:33Z</time>
      </trkpt>
      <trkpt lat="43.56038" lon="6.78902">
        <ele>131.36</ele>
        <time>2012-05-17T08:26:38Z</time>
      </trkpt>
      <trkpt lat="43.56043" lon="6.78934">
        <ele>131.84</ele>
        <time>2012-05-17T08:26:47Z</time>
      </trkpt>
      <trkpt lat="43.5606" lon="6.7895">
        <ele>128.95</ele>
        <time>2012-05-17T08:26:54Z</time>
      </trkpt>
      <trkpt lat="43.56083" lon="6.78992">
        <ele>128.47</ele>
        <time>2012-05-17T08:27:04Z</time>
      </trkpt>
      <trkpt lat="43.56084" lon="6.79047">
        <ele>129.43</ele>
        <time>2012-05-17T08:27:16Z</time>
      </trkpt>
      <trkpt lat="43.56089" lon="6.79096">
        <ele>128.47</ele>
        <time>2012-05-17T08:27:23Z</time>
      </trkpt>
      <trkpt lat="43.56098" lon="6.79124">
        <ele>127.51</ele>
        <time>2012-05-17T08:27:32Z</time>
      </trkpt>
      <trkpt lat="43.561" lon="6.79131">
        <ele>126.55</ele>
        <time>2012-05-17T08:27:40Z</time>
      </trkpt>
      <trkpt lat="43.56105" lon="6.79158">
        <ele>125.11</ele>
        <time>2012-05-17T08:27:44Z</time>
      </trkpt>
      <trkpt lat="43.56099" lon="6.79198">
        <ele>122.71</ele>
        <time>2012-05-17T08:27:49Z</time>
      </trkpt>
      <trkpt lat="43.56097" lon="6.79211">
        <ele>121.74</ele>
        <time>2012-05-17T08:27:51Z</time>
      </trkpt>
      <trkpt lat="43.56105" lon="6.79258">
        <ele>122.71</ele>
        <time>2012-05-17T08:28:02Z</time>
      </trkpt>
      <trkpt lat="43.5612" lon="6.7928">
        <ele>122.71</ele>
        <time>2012-05-17T08:28:13Z</time>
      </trkpt>
      <trkpt lat="43.56133" lon="6.79289">
        <ele>122.71</ele>
        <time>2012-05-17T08:28:25Z</time>
      </trkpt>
      <trkpt lat="43.56133" lon="6.79291">
        <ele>122.22</ele>
        <time>2012-05-17T08:28:40Z</time>
      </trkpt>
      <trkpt lat="43.56107" lon="6.79264">
        <ele>124.15</ele>
        <time>2012-05-17T08:28:53Z</time>
      </trkpt>
      <trkpt lat="43.56102" lon="6.79219">
        <ele>123.67</ele>
        <time>2012-05-17T08:29:05Z</time>
      </trkpt>
      <trkpt lat="43.561" lon="6.79214">
        <ele>123.67</ele>
        <time>2012-05-17T08:29:06Z</time>
      </trkpt>
      <trkpt lat="43.561" lon="6.79195">
        <ele>123.19</ele>
        <time>2012-05-17T08:29:09Z</time>
      </trkpt>
      <trkpt lat="43.56106" lon="6.79169">
        <ele>123.19</ele>
        <time>2012-05-17T08:29:14Z</time>
      </trkpt>
      <trkpt lat="43.56103" lon="6.79133">
        <ele>126.55</ele>
        <time>2012-05-17T08:29:25Z</time>
      </trkpt>
      <trkpt lat="43.56097" lon="6.79112">
        <ele>129.92</ele>
        <time>2012-05-17T08:29:33Z</time>
      </trkpt>
      <trkpt lat="43.56087" lon="6.79055">
        <ele>130.88</ele>
        <time>2012-05-17T08:29:46Z</time>
      </trkpt>
      <trkpt lat="43.56088" lon="6.79004">
        <ele>132.32</ele>
        <time>2012-05-17T08:29:59Z</time>
      </trkpt>
      <trkpt lat="43.56088" lon="6.79003">
        <ele>133.28</ele>
        <time>2012-05-17T08:30:17Z</time>
      </trkpt>
      <trkpt lat="43.56088" lon="6.79003">
        <ele>133.28</ele>
        <time>2012-05-17T08:30:18Z</time>
      </trkpt>
      <trkpt lat="43.56087" lon="6.79052">
        <ele>132.32</ele>
        <time>2012-05-17T08:30:30Z</time>
      </trkpt>
      <trkpt lat="43.56101" lon="6.79128">
        <ele>131.36</ele>
        <time>2012-05-17T08:30:44Z</time>
      </trkpt>
      <trkpt lat="43.56105" lon="6.79147">
        <ele>129.92</ele>
        <time>2012-05-17T08:30:47Z</time>
      </trkpt>
      <trkpt lat="43.56107" lon="6.79161">
        <ele>129.43</ele>
        <time>2012-05-17T08:30:49Z</time>
      </trkpt>
      <trkpt lat="43.56107" lon="6.79175">
        <ele>127.99</ele>
        <time>2012-05-17T08:30:51Z</time>
      </trkpt>
      <trkpt lat="43.56103" lon="6.7919">
        <ele>126.55</ele>
        <time>2012-05-17T08:30:53Z</time>
      </trkpt>
      <trkpt lat="43.561" lon="6.79208">
        <ele>125.59</ele>
        <time>2012-05-17T08:30:56Z</time>
      </trkpt>
      <trkpt lat="43.56103" lon="6.79229">
        <ele>125.59</ele>
        <time>2012-05-17T08:31:00Z</time>
      </trkpt>
      <trkpt lat="43.56116" lon="6.79273">
        <ele>126.55</ele>
        <time>2012-05-17T08:31:11Z</time>
      </trkpt>
      <trkpt lat="43.56145" lon="6.7931">
        <ele>125.11</ele>
        <time>2012-05-17T08:31:22Z</time>
      </trkpt>
      <trkpt lat="43.56174" lon="6.79351">
        <ele>124.63</ele>
        <time>2012-05-17T08:31:35Z</time>
      </trkpt>
      <trkpt lat="43.56193" lon="6.79363">
        <ele>126.07</ele>
        <time>2012-05-17T08:31:46Z</time>
      </trkpt>
      <trkpt lat="43.56218" lon="6.79361">
        <ele>127.51</ele>
        <time>2012-05-17T08:31:56Z</time>
      </trkpt>
      <trkpt lat="43.5622" lon="6.79363">
        <ele>127.51</ele>
        <time>2012-05-17T08:31:58Z</time>
      </trkpt>
      <trkpt lat="43.56225" lon="6.79376">
        <ele>127.99</ele>
        <time>2012-05-17T08:32:04Z</time>
      </trkpt>
      <trkpt lat="43.56234" lon="6.79426">
        <ele>127.03</ele>
        <time>2012-05-17T08:32:16Z</time>
      </trkpt>
      <trkpt lat="43.56236" lon="6.79434">
        <ele>126.55</ele>
        <time>2012-05-17T08:32:18Z</time>
      </trkpt>
      <trkpt lat="43.56235" lon="6.79441">
        <ele>125.11</ele>
        <time>2012-05-17T08:32:28Z</time>
      </trkpt>
      <trkpt lat="43.56237" lon="6.79439">
        <ele>125.11</ele>
        <time>2012-05-17T08:32:37Z</time>
      </trkpt>
      <trkpt lat="43.56237" lon="6.79436">
        <ele>125.11</ele>
        <time>2012-05-17T08:32:39Z</time>
      </trkpt>
      <trkpt lat="43.56235" lon="6.79428">
        <ele>125.59</ele>
        <time>2012-05-17T08:32:44Z</time>
      </trkpt>
      <trkpt lat="43.56239" lon="6.79416">
        <ele>127.51</ele>
        <time>2012-05-17T08:32:55Z</time>
      </trkpt>
      <trkpt lat="43.56239" lon="6.79416">
        <ele>127.99</ele>
        <time>2012-05-17T08:33:07Z</time>
      </trkpt>
      <trkpt lat="43.56241" lon="6.79416">
        <ele>128.47</ele>
        <time>2012-05-17T08:33:19Z</time>
      </trkpt>
      <trkpt lat="43.56239" lon="6.79419">
        <ele>128.95</ele>
        <time>2012-05-17T08:33:34Z</time>
      </trkpt>
      <trkpt lat="43.56238" lon="6.79419">
        <ele>129.43</ele>
        <time>2012-05-17T08:33:54Z</time>
      </trkpt>
      <trkpt lat="43.56238" lon="6.79418">
        <ele>128.95</ele>
        <time>2012-05-17T08:34:23Z</time>
      </trkpt>
      <trkpt lat="43.56237" lon="6.79422">
        <ele>129.43</ele>
        <time>2012-05-17T08:34:31Z</time>
      </trkpt>
      <trkpt lat="43.56236" lon="6.79425">
        <ele>128.95</ele>
        <time>2012-05-17T08:34:33Z</time>
      </trkpt>
      <trkpt lat="43.56239" lon="6.79437">
        <ele>127.51</ele>
        <time>2012-05-17T08:34:41Z</time>
      </trkpt>
      <trkpt lat="43.56237" lon="6.79445">
        <ele>127.03</ele>
        <time>2012-05-17T08:34:54Z</time>
      </trkpt>
      <trkpt lat="43.56235" lon="6.79448">
        <ele>127.03</ele>
        <time>2012-05-17T08:34:57Z</time>
      </trkpt>
      <trkpt lat="43.56228" lon="6.79454">
        <ele>126.55</ele>
        <time>2012-05-17T08:35:12Z</time>
      </trkpt>
      <trkpt lat="43.56228" lon="6.79453">
        <ele>126.55</ele>
        <time>2012-05-17T08:35:14Z</time>
      </trkpt>
      <trkpt lat="43.56234" lon="6.79447">
        <ele>127.03</ele>
        <time>2012-05-17T08:35:20Z</time>
      </trkpt>
      <trkpt lat="43.5624" lon="6.7944">
        <ele>127.03</ele>
        <time>2012-05-17T08:35:31Z</time>
      </trkpt>
      <trkpt lat="43.56243" lon="6.79436">
        <ele>127.51</ele>
        <time>2012-05-17T08:35:34Z</time>
      </trkpt>
      <trkpt lat="43.56249" lon="6.79437">
        <ele>127.03</ele>
        <time>2012-05-17T08:35:42Z</time>
      </trkpt>
      <trkpt lat="43.56251" lon="6.79444">
        <ele>126.07</ele>
        <time>2012-05-17T08:35:47Z</time>
      </trkpt>
      <trkpt lat="43.56245" lon="6.79464">
        <ele>125.11</ele>
        <time>2012-05-17T08:35:59Z</time>
      </trkpt>
      <trkpt lat="43.56238" lon="6.79467">
        <ele>124.63</ele>
        <time>2012-05-17T08:36:05Z</time>
      </trkpt>
      <trkpt lat="43.56229" lon="6.7947">
        <ele>123.67</ele>
        <time>2012-05-17T08:36:19Z</time>
      </trkpt>
      <trkpt lat="43.56231" lon="6.79469">
        <ele>124.15</ele>
        <time>2012-05-17T08:37:00Z</time>
      </trkpt>
      <trkpt lat="43.56236" lon="6.79466">
        <ele>124.63</ele>
        <time>2012-05-17T08:37:05Z</time>
      </trkpt>
      <trkpt lat="43.56246" lon="6.79456">
        <ele>126.07</ele>
        <time>2012-05-17T08:37:21Z</time>
      </trkpt>
      <trkpt lat="43.56248" lon="6.79457">
        <ele>126.07</ele>
        <time>2012-05-17T08:37:26Z</time>
      </trkpt>
      <trkpt lat="43.56253" lon="6.79464">
        <ele>125.59</ele>
        <time>2012-05-17T08:37:34Z</time>
      </trkpt>
      <trkpt lat="43.5626" lon="6.79466">
        <ele>124.15</ele>
        <time>2012-05-17T08:37:50Z</time>
      </trkpt>
      <trkpt lat="43.56256" lon="6.79465">
        <ele>125.11</ele>
        <time>2012-05-17T08:38:25Z</time>
      </trkpt>
      <trkpt lat="43.56252" lon="6.79463">
        <ele>125.59</ele>
        <time>2012-05-17T08:38:30Z</time>
      </trkpt>
      <trkpt lat="43.56251" lon="6.79462">
        <ele>126.07</ele>
        <time>2012-05-17T08:38:32Z</time>
      </trkpt>
      <trkpt lat="43.56247" lon="6.79459">
        <ele>126.55</ele>
        <time>2012-05-17T08:38:36Z</time>
      </trkpt>
      <trkpt lat="43.56247" lon="6.79456">
        <ele>126.55</ele>
        <time>2012-05-17T08:38:38Z</time>
      </trkpt>
      <trkpt lat="43.56246" lon="6.79438">
        <ele>128.47</ele>
        <time>2012-05-17T08:38:52Z</time>
      </trkpt>
      <trkpt lat="43.56241" lon="6.79437">
        <ele>129.43</ele>
        <time>2012-05-17T08:38:57Z</time>
      </trkpt>
      <trkpt lat="43.56236" lon="6.79443">
        <ele>129.43</ele>
        <time>2012-05-17T08:39:12Z</time>
      </trkpt>
      <trkpt lat="43.56238" lon="6.79441">
        <ele>129.92</ele>
        <time>2012-05-17T08:39:51Z</time>
      </trkpt>
      <trkpt lat="43.56238" lon="6.7944">
        <ele>130.4</ele>
        <time>2012-05-17T08:40:08Z</time>
      </trkpt>
      <trkpt lat="43.56238" lon="6.79437">
        <ele>130.88</ele>
        <time>2012-05-17T08:40:45Z</time>
      </trkpt>
      <trkpt lat="43.56238" lon="6.79436">
        <ele>131.84</ele>
        <time>2012-05-17T08:41:36Z</time>
      </trkpt>
      <trkpt lat="43.56238" lon="6.79436">
        <ele>131.84</ele>
        <time>2012-05-17T08:41:41Z</time>
      </trkpt>
      <trkpt lat="43.56235" lon="6.79417">
        <ele>132.8</ele>
        <time>2012-05-17T08:41:51Z</time>
      </trkpt>
      <trkpt lat="43.56233" lon="6.79408">
        <ele>134.24</ele>
        <time>2012-05-17T08:41:56Z</time>
      </trkpt>
      <trkpt lat="43.56221" lon="6.79362">
        <ele>135.2</ele>
        <time>2012-05-17T08:42:10Z</time>
      </trkpt>
      <trkpt lat="43.56205" lon="6.79329">
        <ele>136.16</ele>
        <time>2012-05-17T08:42:24Z</time>
      </trkpt>
      <trkpt lat="43.56197" lon="6.79306">
        <ele>136.64</ele>
        <time>2012-05-17T08:42:33Z</time>
      </trkpt>
      <trkpt lat="43.56193" lon="6.79289">
        <ele>137.13</ele>
        <time>2012-05-17T08:42:43Z</time>
      </trkpt>
      <trkpt lat="43.56176" lon="6.79264">
        <ele>140.97</ele>
        <time>2012-05-17T08:43:00Z</time>
      </trkpt>
      <trkpt lat="43.56156" lon="6.79244">
        <ele>139.53</ele>
        <time>2012-05-17T08:43:11Z</time>
      </trkpt>
      <trkpt lat="43.56143" lon="6.79206">
        <ele>139.05</ele>
        <time>2012-05-17T08:43:23Z</time>
      </trkpt>
      <trkpt lat="43.56156" lon="6.79169">
        <ele>140.97</ele>
        <time>2012-05-17T08:43:39Z</time>
      </trkpt>
      <trkpt lat="43.56162" lon="6.79164">
        <ele>140.97</ele>
        <time>2012-05-17T08:43:49Z</time>
      </trkpt>
      <trkpt lat="43.56162" lon="6.79164">
        <ele>140.49</ele>
        <time>2012-05-17T08:44:06Z</time>
      </trkpt>
      <trkpt lat="43.56165" lon="6.79165">
        <ele>140.97</ele>
        <time>2012-05-17T08:44:16Z</time>
      </trkpt>
      <trkpt lat="43.56165" lon="6.79166">
        <ele>141.45</ele>
        <time>2012-05-17T08:44:44Z</time>
      </trkpt>
      <trkpt lat="43.56162" lon="6.79165">
        <ele>141.45</ele>
        <time>2012-05-17T08:44:58Z</time>
      </trkpt>
      <trkpt lat="43.56163" lon="6.79163">
        <ele>141.45</ele>
        <time>2012-05-17T08:45:06Z</time>
      </trkpt>
      <trkpt lat="43.56166" lon="6.79165">
        <ele>141.45</ele>
        <time>2012-05-17T08:45:23Z</time>
      </trkpt>
      <trkpt lat="43.56166" lon="6.79165">
        <ele>141.45</ele>
        <time>2012-05-17T08:45:29Z</time>
      </trkpt>
      <trkpt lat="43.56162" lon="6.79165">
        <ele>140.97</ele>
        <time>2012-05-17T08:45:46Z</time>
      </trkpt>
      <trkpt lat="43.56162" lon="6.79162">
        <ele>142.41</ele>
        <time>2012-05-17T08:46:05Z</time>
      </trkpt>
      <trkpt lat="43.56162" lon="6.79162">
        <ele>142.41</ele>
        <time>2012-05-17T08:46:07Z</time>
      </trkpt>
      <trkpt lat="43.56161" lon="6.79161">
        <ele>141.93</ele>
        <time>2012-05-17T08:46:12Z</time>
      </trkpt>
      <trkpt lat="43.56169" lon="6.79141">
        <ele>141.93</ele>
        <time>2012-05-17T08:46:24Z</time>
      </trkpt>
      <trkpt lat="43.56177" lon="6.79101">
        <ele>140.01</ele>
        <time>2012-05-17T08:46:34Z</time>
      </trkpt>
      <trkpt lat="43.56183" lon="6.79089">
        <ele>140.01</ele>
        <time>2012-05-17T08:46:39Z</time>
      </trkpt>
      <trkpt lat="43.56229" lon="6.79081">
        <ele>138.57</ele>
        <time>2012-05-17T08:46:51Z</time>
      </trkpt>
      <trkpt lat="43.56249" lon="6.79072">
        <ele>137.61</ele>
        <time>2012-05-17T08:46:56Z</time>
      </trkpt>
      <trkpt lat="43.56283" lon="6.79056">
        <ele>135.68</ele>
        <time>2012-05-17T08:47:01Z</time>
      </trkpt>
      <trkpt lat="43.56342" lon="6.79044">
        <ele>136.64</ele>
        <time>2012-05-17T08:47:14Z</time>
      </trkpt>
      <trkpt lat="43.56357" lon="6.79033">
        <ele>137.13</ele>
        <time>2012-05-17T08:47:18Z</time>
      </trkpt>
      <trkpt lat="43.56368" lon="6.79014">
        <ele>137.61</ele>
        <time>2012-05-17T08:47:22Z</time>
      </trkpt>
      <trkpt lat="43.56401" lon="6.79017">
        <ele>138.09</ele>
        <time>2012-05-17T08:47:30Z</time>
      </trkpt>
      <trkpt lat="43.56406" lon="6.79017">
        <ele>138.09</ele>
        <time>2012-05-17T08:47:31Z</time>
      </trkpt>
      <trkpt lat="43.56426" lon="6.79019">
        <ele>138.09</ele>
        <time>2012-05-17T08:47:35Z</time>
      </trkpt>
      <trkpt lat="43.5645" lon="6.79042">
        <ele>139.05</ele>
        <time>2012-05-17T08:47:42Z</time>
      </trkpt>
      <trkpt lat="43.56452" lon="6.79053">
        <ele>139.05</ele>
        <time>2012-05-17T08:47:44Z</time>
      </trkpt>
      <trkpt lat="43.56464" lon="6.79079">
        <ele>139.05</ele>
        <time>2012-05-17T08:47:49Z</time>
      </trkpt>
      <trkpt lat="43.56472" lon="6.79121">
        <ele>140.01</ele>
        <time>2012-05-17T08:47:57Z</time>
      </trkpt>
      <trkpt lat="43.56485" lon="6.79158">
        <ele>141.93</ele>
        <time>2012-05-17T08:48:07Z</time>
      </trkpt>
      <trkpt lat="43.56498" lon="6.79151">
        <ele>142.41</ele>
        <time>2012-05-17T08:48:12Z</time>
      </trkpt>
      <trkpt lat="43.56551" lon="6.79146">
        <ele>143.37</ele>
        <time>2012-05-17T08:48:27Z</time>
      </trkpt>
      <trkpt lat="43.56591" lon="6.7916">
        <ele>143.37</ele>
        <time>2012-05-17T08:48:37Z</time>
      </trkpt>
      <trkpt lat="43.56639" lon="6.79203">
        <ele>144.34</ele>
        <time>2012-05-17T08:48:54Z</time>
      </trkpt>
      <trkpt lat="43.56642" lon="6.79207">
        <ele>144.34</ele>
        <time>2012-05-17T08:48:55Z</time>
      </trkpt>
      <trkpt lat="43.56682" lon="6.79237">
        <ele>141.93</ele>
        <time>2012-05-17T08:49:03Z</time>
      </trkpt>
      <trkpt lat="43.56718" lon="6.79231">
        <ele>142.41</ele>
        <time>2012-05-17T08:49:13Z</time>
      </trkpt>
      <trkpt lat="43.5673" lon="6.79228">
        <ele>141.45</ele>
        <time>2012-05-17T08:49:16Z</time>
      </trkpt>
      <trkpt lat="43.5675" lon="6.79253">
        <ele>141.45</ele>
        <time>2012-05-17T08:49:23Z</time>
      </trkpt>
      <trkpt lat="43.56746" lon="6.7928">
        <ele>141.93</ele>
        <time>2012-05-17T08:49:28Z</time>
      </trkpt>
      <trkpt lat="43.5676" lon="6.79309">
        <ele>140.01</ele>
        <time>2012-05-17T08:49:34Z</time>
      </trkpt>
      <trkpt lat="43.56778" lon="6.79335">
        <ele>139.05</ele>
        <time>2012-05-17T08:49:41Z</time>
      </trkpt>
      <trkpt lat="43.56806" lon="6.79349">
        <ele>139.05</ele>
        <time>2012-05-17T08:49:51Z</time>
      </trkpt>
      <trkpt lat="43.56845" lon="6.79355">
        <ele>140.01</ele>
        <time>2012-05-17T08:50:03Z</time>
      </trkpt>
      <trkpt lat="43.56887" lon="6.79344">
        <ele>142.41</ele>
        <time>2012-05-17T08:50:17Z</time>
      </trkpt>
      <trkpt lat="43.56935" lon="6.79322">
        <ele>145.3</ele>
        <time>2012-05-17T08:50:35Z</time>
      </trkpt>
      <trkpt lat="43.56952" lon="6.79305">
        <ele>147.7</ele>
        <time>2012-05-17T08:50:44Z</time>
      </trkpt>
      <trkpt lat="43.56981" lon="6.79315">
        <ele>148.18</ele>
        <time>2012-05-17T08:50:55Z</time>
      </trkpt>
      <trkpt lat="43.56998" lon="6.79281">
        <ele>149.14</ele>
        <time>2012-05-17T08:51:06Z</time>
      </trkpt>
      <trkpt lat="43.56998" lon="6.79253">
        <ele>149.14</ele>
        <time>2012-05-17T08:51:12Z</time>
      </trkpt>
      <trkpt lat="43.57016" lon="6.7925">
        <ele>149.62</ele>
        <time>2012-05-17T08:51:18Z</time>
      </trkpt>
      <trkpt lat="43.57034" lon="6.79272">
        <ele>149.62</ele>
        <time>2012-05-17T08:51:25Z</time>
      </trkpt>
      <trkpt lat="43.57084" lon="6.793">
        <ele>150.1</ele>
        <time>2012-05-17T08:51:40Z</time>
      </trkpt>
      <trkpt lat="43.57129" lon="6.7932">
        <ele>151.06</ele>
        <time>2012-05-17T08:51:54Z</time>
      </trkpt>
      <trkpt lat="43.57136" lon="6.79319">
        <ele>150.58</ele>
        <time>2012-05-17T08:51:56Z</time>
      </trkpt>
      <trkpt lat="43.57148" lon="6.79316">
        <ele>150.58</ele>
        <time>2012-05-17T08:51:59Z</time>
      </trkpt>
      <trkpt lat="43.57166" lon="6.7933">
        <ele>150.1</ele>
        <time>2012-05-17T08:52:04Z</time>
      </trkpt>
      <trkpt lat="43.57181" lon="6.79359">
        <ele>152.51</ele>
        <time>2012-05-17T08:52:15Z</time>
      </trkpt>
      <trkpt lat="43.57219" lon="6.79366">
        <ele>153.47</ele>
        <time>2012-05-17T08:52:29Z</time>
      </trkpt>
      <trkpt lat="43.57246" lon="6.79341">
        <ele>154.43</ele>
        <time>2012-05-17T08:52:42Z</time>
      </trkpt>
      <trkpt lat="43.57248" lon="6.79341">
        <ele>154.91</ele>
        <time>2012-05-17T08:52:43Z</time>
      </trkpt>
      <trkpt lat="43.57277" lon="6.79375">
        <ele>153.47</ele>
        <time>2012-05-17T08:52:52Z</time>
      </trkpt>
      <trkpt lat="43.57296" lon="6.79403">
        <ele>152.99</ele>
        <time>2012-05-17T08:52:57Z</time>
      </trkpt>
      <trkpt lat="43.57312" lon="6.7947">
        <ele>153.47</ele>
        <time>2012-05-17T08:53:10Z</time>
      </trkpt>
      <trkpt lat="43.57339" lon="6.79463">
        <ele>152.51</ele>
        <time>2012-05-17T08:53:19Z</time>
      </trkpt>
      <trkpt lat="43.57356" lon="6.79445">
        <ele>151.06</ele>
        <time>2012-05-17T08:53:24Z</time>
      </trkpt>
      <trkpt lat="43.57377" lon="6.79444">
        <ele>150.58</ele>
        <time>2012-05-17T08:53:29Z</time>
      </trkpt>
      <trkpt lat="43.57412" lon="6.79459">
        <ele>151.54</ele>
        <time>2012-05-17T08:53:41Z</time>
      </trkpt>
      <trkpt lat="43.57421" lon="6.79444">
        <ele>152.03</ele>
        <time>2012-05-17T08:53:51Z</time>
      </trkpt>
      <trkpt lat="43.57432" lon="6.79427">
        <ele>152.51</ele>
        <time>2012-05-17T08:54:04Z</time>
      </trkpt>
      <trkpt lat="43.57438" lon="6.79449">
        <ele>152.51</ele>
        <time>2012-05-17T08:54:12Z</time>
      </trkpt>
      <trkpt lat="43.57438" lon="6.79453">
        <ele>152.51</ele>
        <time>2012-05-17T08:54:13Z</time>
      </trkpt>
      <trkpt lat="43.5744" lon="6.79504">
        <ele>151.54</ele>
        <time>2012-05-17T08:54:23Z</time>
      </trkpt>
      <trkpt lat="43.57458" lon="6.79561">
        <ele>152.99</ele>
        <time>2012-05-17T08:54:36Z</time>
      </trkpt>
      <trkpt lat="43.57477" lon="6.79582">
        <ele>152.03</ele>
        <time>2012-05-17T08:54:41Z</time>
      </trkpt>
      <trkpt lat="43.57508" lon="6.79658">
        <ele>152.99</ele>
        <time>2012-05-17T08:54:56Z</time>
      </trkpt>
      <trkpt lat="43.57538" lon="6.79684">
        <ele>152.99</ele>
        <time>2012-05-17T08:55:07Z</time>
      </trkpt>
      <trkpt lat="43.57551" lon="6.79678">
        <ele>152.99</ele>
        <time>2012-05-17T08:55:10Z</time>
      </trkpt>
      <trkpt lat="43.57562" lon="6.79667">
        <ele>152.03</ele>
        <time>2012-05-17T08:55:13Z</time>
      </trkpt>
      <trkpt lat="43.57574" lon="6.79657">
        <ele>151.06</ele>
        <time>2012-05-17T08:55:16Z</time>
      </trkpt>
      <trkpt lat="43.57588" lon="6.79668">
        <ele>150.1</ele>
        <time>2012-05-17T08:55:22Z</time>
      </trkpt>
      <trkpt lat="43.57587" lon="6.79673">
        <ele>149.62</ele>
        <time>2012-05-17T08:55:23Z</time>
      </trkpt>
      <trkpt lat="43.57592" lon="6.79731">
        <ele>152.03</ele>
        <time>2012-05-17T08:55:36Z</time>
      </trkpt>
      <trkpt lat="43.57613" lon="6.79773">
        <ele>154.43</ele>
        <time>2012-05-17T08:55:49Z</time>
      </trkpt>
      <trkpt lat="43.57624" lon="6.79777">
        <ele>154.43</ele>
        <time>2012-05-17T08:55:52Z</time>
      </trkpt>
      <trkpt lat="43.57642" lon="6.79777">
        <ele>153.95</ele>
        <time>2012-05-17T08:55:56Z</time>
      </trkpt>
      <trkpt lat="43.57656" lon="6.79776">
        <ele>153.95</ele>
        <time>2012-05-17T08:55:59Z</time>
      </trkpt>
      <trkpt lat="43.57683" lon="6.79791">
        <ele>153.95</ele>
        <time>2012-05-17T08:56:07Z</time>
      </trkpt>
      <trkpt lat="43.57678" lon="6.79832">
        <ele>154.91</ele>
        <time>2012-05-17T08:56:20Z</time>
      </trkpt>
      <trkpt lat="43.57689" lon="6.79884">
        <ele>156.83</ele>
        <time>2012-05-17T08:56:35Z</time>
      </trkpt>
      <trkpt lat="43.57713" lon="6.79907">
        <ele>156.83</ele>
        <time>2012-05-17T08:56:44Z</time>
      </trkpt>
      <trkpt lat="43.57737" lon="6.7991">
        <ele>158.75</ele>
        <time>2012-05-17T08:56:55Z</time>
      </trkpt>
      <trkpt lat="43.57745" lon="6.7991">
        <ele>159.24</ele>
        <time>2012-05-17T08:56:59Z</time>
      </trkpt>
      <trkpt lat="43.57795" lon="6.7992">
        <ele>161.16</ele>
        <time>2012-05-17T08:57:17Z</time>
      </trkpt>
      <trkpt lat="43.57828" lon="6.79927">
        <ele>160.68</ele>
        <time>2012-05-17T08:57:30Z</time>
      </trkpt>
      <trkpt lat="43.57862" lon="6.79926">
        <ele>158.27</ele>
        <time>2012-05-17T08:57:42Z</time>
      </trkpt>
      <trkpt lat="43.57908" lon="6.79903">
        <ele>155.87</ele>
        <time>2012-05-17T08:57:55Z</time>
      </trkpt>
      <trkpt lat="43.57945" lon="6.7988">
        <ele>152.99</ele>
        <time>2012-05-17T08:58:07Z</time>
      </trkpt>
      <trkpt lat="43.57978" lon="6.79861">
        <ele>150.1</ele>
        <time>2012-05-17T08:58:18Z</time>
      </trkpt>
      <trkpt lat="43.57986" lon="6.79857">
        <ele>149.62</ele>
        <time>2012-05-17T08:58:20Z</time>
      </trkpt>
      <trkpt lat="43.58016" lon="6.79841">
        <ele>148.66</ele>
        <time>2012-05-17T08:58:32Z</time>
      </trkpt>
      <trkpt lat="43.58031" lon="6.79822">
        <ele>148.18</ele>
        <time>2012-05-17T08:58:39Z</time>
      </trkpt>
      <trkpt lat="43.58051" lon="6.79798">
        <ele>147.22</ele>
        <time>2012-05-17T08:58:45Z</time>
      </trkpt>
      <trkpt lat="43.58075" lon="6.79736">
        <ele>146.74</ele>
        <time>2012-05-17T08:58:59Z</time>
      </trkpt>
      <trkpt lat="43.58074" lon="6.79683">
        <ele>147.22</ele>
        <time>2012-05-17T08:59:11Z</time>
      </trkpt>
      <trkpt lat="43.58055" lon="6.79633">
        <ele>148.18</ele>
        <time>2012-05-17T08:59:26Z</time>
      </trkpt>
      <trkpt lat="43.58015" lon="6.79584">
        <ele>147.22</ele>
        <time>2012-05-17T08:59:41Z</time>
      </trkpt>
      <trkpt lat="43.57997" lon="6.79568">
        <ele>147.7</ele>
        <time>2012-05-17T08:59:47Z</time>
      </trkpt>
      <trkpt lat="43.5801" lon="6.79542">
        <ele>147.22</ele>
        <time>2012-05-17T08:59:54Z</time>
      </trkpt>
      <trkpt lat="43.58014" lon="6.79541">
        <ele>147.22</ele>
        <time>2012-05-17T08:59:55Z</time>
      </trkpt>
      <trkpt lat="43.58041" lon="6.79521">
        <ele>146.74</ele>
        <time>2012-05-17T09:00:08Z</time>
      </trkpt>
      <trkpt lat="43.58034" lon="6.79473">
        <ele>146.74</ele>
        <time>2012-05-17T09:00:21Z</time>
      </trkpt>
      <trkpt lat="43.58017" lon="6.79432">
        <ele>145.78</ele>
        <time>2012-05-17T09:00:29Z</time>
      </trkpt>
      <trkpt lat="43.5802" lon="6.79398">
        <ele>143.85</ele>
        <time>2012-05-17T09:00:35Z</time>
      </trkpt>
      <trkpt lat="43.58036" lon="6.79402">
        <ele>143.37</ele>
        <time>2012-05-17T09:00:39Z</time>
      </trkpt>
      <trkpt lat="43.58085" lon="6.79453">
        <ele>145.3</ele>
        <time>2012-05-17T09:00:58Z</time>
      </trkpt>
      <trkpt lat="43.58108" lon="6.79481">
        <ele>147.22</ele>
        <time>2012-05-17T09:01:09Z</time>
      </trkpt>
      <trkpt lat="43.58114" lon="6.7949">
        <ele>148.66</ele>
        <time>2012-05-17T09:01:13Z</time>
      </trkpt>
      <trkpt lat="43.5814" lon="6.7951">
        <ele>152.03</ele>
        <time>2012-05-17T09:01:24Z</time>
      </trkpt>
      <trkpt lat="43.58142" lon="6.79509">
        <ele>152.03</ele>
        <time>2012-05-17T09:01:25Z</time>
      </trkpt>
      <trkpt lat="43.58169" lon="6.7951">
        <ele>154.43</ele>
        <time>2012-05-17T09:01:36Z</time>
      </trkpt>
      <trkpt lat="43.58193" lon="6.79483">
        <ele>157.31</ele>
        <time>2012-05-17T09:01:51Z</time>
      </trkpt>
      <trkpt lat="43.58216" lon="6.79464">
        <ele>160.68</ele>
        <time>2012-05-17T09:02:05Z</time>
      </trkpt>
      <trkpt lat="43.5824" lon="6.79439">
        <ele>163.08</ele>
        <time>2012-05-17T09:02:23Z</time>
      </trkpt>
      <trkpt lat="43.58266" lon="6.79406">
        <ele>163.56</ele>
        <time>2012-05-17T09:02:43Z</time>
      </trkpt>
      <trkpt lat="43.58268" lon="6.79403">
        <ele>163.56</ele>
        <time>2012-05-17T09:02:45Z</time>
      </trkpt>
      <trkpt lat="43.58272" lon="6.79394">
        <ele>163.08</ele>
        <time>2012-05-17T09:02:57Z</time>
      </trkpt>
      <trkpt lat="43.58272" lon="6.79394">
        <ele>163.08</ele>
        <time>2012-05-17T09:03:09Z</time>
      </trkpt>
      <trkpt lat="43.5826" lon="6.79365">
        <ele>162.6</ele>
        <time>2012-05-17T09:03:21Z</time>
      </trkpt>
      <trkpt lat="43.58261" lon="6.79334">
        <ele>161.16</ele>
        <time>2012-05-17T09:03:30Z</time>
      </trkpt>
      <trkpt lat="43.583" lon="6.79319">
        <ele>159.72</ele>
        <time>2012-05-17T09:03:39Z</time>
      </trkpt>
      <trkpt lat="43.58326" lon="6.7928">
        <ele>158.27</ele>
        <time>2012-05-17T09:03:47Z</time>
      </trkpt>
      <trkpt lat="43.58316" lon="6.79248">
        <ele>156.83</ele>
        <time>2012-05-17T09:03:54Z</time>
      </trkpt>
      <trkpt lat="43.58294" lon="6.79237">
        <ele>156.35</ele>
        <time>2012-05-17T09:04:01Z</time>
      </trkpt>
      <trkpt lat="43.58278" lon="6.79236">
        <ele>154.91</ele>
        <time>2012-05-17T09:04:05Z</time>
      </trkpt>
      <trkpt lat="43.58265" lon="6.79236">
        <ele>154.43</ele>
        <time>2012-05-17T09:04:08Z</time>
      </trkpt>
      <trkpt lat="43.58256" lon="6.79237">
        <ele>153.47</ele>
        <time>2012-05-17T09:04:10Z</time>
      </trkpt>
      <trkpt lat="43.58238" lon="6.79215">
        <ele>152.03</ele>
        <time>2012-05-17T09:04:17Z</time>
      </trkpt>
      <trkpt lat="43.58257" lon="6.79166">
        <ele>154.43</ele>
        <time>2012-05-17T09:04:30Z</time>
      </trkpt>
      <trkpt lat="43.58236" lon="6.79137">
        <ele>155.39</ele>
        <time>2012-05-17T09:04:41Z</time>
      </trkpt>
      <trkpt lat="43.58189" lon="6.79125">
        <ele>154.91</ele>
        <time>2012-05-17T09:04:55Z</time>
      </trkpt>
      <trkpt lat="43.58155" lon="6.79097">
        <ele>151.54</ele>
        <time>2012-05-17T09:05:06Z</time>
      </trkpt>
      <trkpt lat="43.58152" lon="6.79095">
        <ele>151.54</ele>
        <time>2012-05-17T09:05:07Z</time>
      </trkpt>
      <trkpt lat="43.58135" lon="6.79099">
        <ele>149.62</ele>
        <time>2012-05-17T09:05:11Z</time>
      </trkpt>
      <trkpt lat="43.58116" lon="6.79079">
        <ele>148.66</ele>
        <time>2012-05-17T09:05:17Z</time>
      </trkpt>
      <trkpt lat="43.58116" lon="6.79073">
        <ele>149.14</ele>
        <time>2012-05-17T09:05:18Z</time>
      </trkpt>
      <trkpt lat="43.58092" lon="6.79044">
        <ele>152.03</ele>
        <time>2012-05-17T09:05:30Z</time>
      </trkpt>
      <trkpt lat="43.58058" lon="6.79031">
        <ele>151.06</ele>
        <time>2012-05-17T09:05:40Z</time>
      </trkpt>
      <trkpt lat="43.58057" lon="6.79009">
        <ele>151.54</ele>
        <time>2012-05-17T09:05:45Z</time>
      </trkpt>
      <trkpt lat="43.58062" lon="6.78993">
        <ele>152.03</ele>
        <time>2012-05-17T09:05:50Z</time>
      </trkpt>
      <trkpt lat="43.58038" lon="6.78948">
        <ele>153.47</ele>
        <time>2012-05-17T09:06:03Z</time>
      </trkpt>
      <trkpt lat="43.57994" lon="6.78916">
        <ele>152.51</ele>
        <time>2012-05-17T09:06:16Z</time>
      </trkpt>
      <trkpt lat="43.57986" lon="6.78913">
        <ele>152.51</ele>
        <time>2012-05-17T09:06:18Z</time>
      </trkpt>
      <trkpt lat="43.57968" lon="6.78908">
        <ele>151.54</ele>
        <time>2012-05-17T09:06:22Z</time>
      </trkpt>
      <trkpt lat="43.57953" lon="6.78884">
        <ele>150.1</ele>
        <time>2012-05-17T09:06:28Z</time>
      </trkpt>
      <trkpt lat="43.57961" lon="6.78874">
        <ele>150.1</ele>
        <time>2012-05-17T09:06:30Z</time>
      </trkpt>
      <trkpt lat="43.57969" lon="6.78817">
        <ele>151.54</ele>
        <time>2012-05-17T09:06:42Z</time>
      </trkpt>
      <trkpt lat="43.57965" lon="6.78797">
        <ele>151.54</ele>
        <time>2012-05-17T09:06:46Z</time>
      </trkpt>
      <trkpt lat="43.57957" lon="6.78772">
        <ele>151.06</ele>
        <time>2012-05-17T09:06:51Z</time>
      </trkpt>
      <trkpt lat="43.57951" lon="6.78726">
        <ele>149.14</ele>
        <time>2012-05-17T09:07:00Z</time>
      </trkpt>
      <trkpt lat="43.57952" lon="6.78681">
        <ele>147.22</ele>
        <time>2012-05-17T09:07:08Z</time>
      </trkpt>
      <trkpt lat="43.57972" lon="6.78687">
        <ele>146.74</ele>
        <time>2012-05-17T09:07:13Z</time>
      </trkpt>
      <trkpt lat="43.57986" lon="6.78736">
        <ele>148.18</ele>
        <time>2012-05-17T09:07:25Z</time>
      </trkpt>
      <trkpt lat="43.57999" lon="6.78764">
        <ele>148.18</ele>
        <time>2012-05-17T09:07:31Z</time>
      </trkpt>
      <trkpt lat="43.58016" lon="6.78792">
        <ele>147.22</ele>
        <time>2012-05-17T09:07:36Z</time>
      </trkpt>
      <trkpt lat="43.5802" lon="6.78813">
        <ele>147.22</ele>
        <time>2012-05-17T09:07:39Z</time>
      </trkpt>
      <trkpt lat="43.58026" lon="6.78831">
        <ele>147.22</ele>
        <time>2012-05-17T09:07:42Z</time>
      </trkpt>
      <trkpt lat="43.58041" lon="6.78845">
        <ele>147.7</ele>
        <time>2012-05-17T09:07:47Z</time>
      </trkpt>
      <trkpt lat="43.5808" lon="6.78858">
        <ele>150.58</ele>
        <time>2012-05-17T09:08:01Z</time>
      </trkpt>
      <trkpt lat="43.58109" lon="6.78872">
        <ele>153.47</ele>
        <time>2012-05-17T09:08:14Z</time>
      </trkpt>
      <trkpt lat="43.58129" lon="6.78858">
        <ele>155.39</ele>
        <time>2012-05-17T09:08:23Z</time>
      </trkpt>
      <trkpt lat="43.58138" lon="6.78819">
        <ele>157.31</ele>
        <time>2012-05-17T09:08:36Z</time>
      </trkpt>
      <trkpt lat="43.58153" lon="6.78775">
        <ele>157.79</ele>
        <time>2012-05-17T09:08:47Z</time>
      </trkpt>
      <trkpt lat="43.58161" lon="6.78755">
        <ele>157.79</ele>
        <time>2012-05-17T09:08:51Z</time>
      </trkpt>
      <trkpt lat="43.58197" lon="6.78691">
        <ele>157.79</ele>
        <time>2012-05-17T09:09:06Z</time>
      </trkpt>
      <trkpt lat="43.58216" lon="6.78584">
        <ele>156.83</ele>
        <time>2012-05-17T09:09:22Z</time>
      </trkpt>
      <trkpt lat="43.58218" lon="6.78564">
        <ele>156.35</ele>
        <time>2012-05-17T09:09:25Z</time>
      </trkpt>
      <trkpt lat="43.58223" lon="6.7854">
        <ele>156.35</ele>
        <time>2012-05-17T09:09:29Z</time>
      </trkpt>
      <trkpt lat="43.58228" lon="6.78525">
        <ele>156.83</ele>
        <time>2012-05-17T09:09:32Z</time>
      </trkpt>
      <trkpt lat="43.58229" lon="6.78515">
        <ele>157.31</ele>
        <time>2012-05-17T09:09:34Z</time>
      </trkpt>
      <trkpt lat="43.58226" lon="6.78483">
        <ele>157.79</ele>
        <time>2012-05-17T09:09:39Z</time>
      </trkpt>
      <trkpt lat="43.58228" lon="6.78434">
        <ele>158.27</ele>
        <time>2012-05-17T09:09:50Z</time>
      </trkpt>
      <trkpt lat="43.58249" lon="6.78416">
        <ele>157.31</ele>
        <time>2012-05-17T09:09:56Z</time>
      </trkpt>
      <trkpt lat="43.58257" lon="6.7842">
        <ele>157.31</ele>
        <time>2012-05-17T09:09:58Z</time>
      </trkpt>
      <trkpt lat="43.58288" lon="6.78399">
        <ele>156.83</ele>
        <time>2012-05-17T09:10:05Z</time>
      </trkpt>
      <trkpt lat="43.58276" lon="6.78346">
        <ele>157.31</ele>
        <time>2012-05-17T09:10:13Z</time>
      </trkpt>
      <trkpt lat="43.58268" lon="6.78327">
        <ele>157.31</ele>
        <time>2012-05-17T09:10:16Z</time>
      </trkpt>
      <trkpt lat="43.58264" lon="6.78313">
        <ele>157.31</ele>
        <time>2012-05-17T09:10:18Z</time>
      </trkpt>
      <trkpt lat="43.5826" lon="6.78279">
        <ele>157.31</ele>
        <time>2012-05-17T09:10:23Z</time>
      </trkpt>
      <trkpt lat="43.58259" lon="6.78265">
        <ele>157.31</ele>
        <time>2012-05-17T09:10:25Z</time>
      </trkpt>
      <trkpt lat="43.58274" lon="6.78223">
        <ele>157.31</ele>
        <time>2012-05-17T09:10:33Z</time>
      </trkpt>
      <trkpt lat="43.58281" lon="6.78204">
        <ele>157.31</ele>
        <time>2012-05-17T09:10:36Z</time>
      </trkpt>
      <trkpt lat="43.58288" lon="6.78186">
        <ele>157.31</ele>
        <time>2012-05-17T09:10:39Z</time>
      </trkpt>
      <trkpt lat="43.58297" lon="6.78168">
        <ele>157.31</ele>
        <time>2012-05-17T09:10:42Z</time>
      </trkpt>
      <trkpt lat="43.58306" lon="6.78133">
        <ele>157.31</ele>
        <time>2012-05-17T09:10:48Z</time>
      </trkpt>
      <trkpt lat="43.5827" lon="6.7809">
        <ele>156.35</ele>
        <time>2012-05-17T09:10:57Z</time>
      </trkpt>
      <trkpt lat="43.58247" lon="6.78054">
        <ele>154.91</ele>
        <time>2012-05-17T09:11:04Z</time>
      </trkpt>
      <trkpt lat="43.58245" lon="6.78038">
        <ele>154.91</ele>
        <time>2012-05-17T09:11:06Z</time>
      </trkpt>
      <trkpt lat="43.58244" lon="6.78023">
        <ele>154.43</ele>
        <time>2012-05-17T09:11:08Z</time>
      </trkpt>
      <trkpt lat="43.58236" lon="6.77982">
        <ele>155.39</ele>
        <time>2012-05-17T09:11:15Z</time>
      </trkpt>
      <trkpt lat="43.58215" lon="6.77975">
        <ele>157.79</ele>
        <time>2012-05-17T09:11:24Z</time>
      </trkpt>
      <trkpt lat="43.58201" lon="6.77968">
        <ele>159.24</ele>
        <time>2012-05-17T09:11:30Z</time>
      </trkpt>
      <trkpt lat="43.58198" lon="6.77956">
        <ele>160.2</ele>
        <time>2012-05-17T09:11:35Z</time>
      </trkpt>
      <trkpt lat="43.58195" lon="6.77926">
        <ele>162.6</ele>
        <time>2012-05-17T09:11:48Z</time>
      </trkpt>
      <trkpt lat="43.58193" lon="6.77922">
        <ele>162.6</ele>
        <time>2012-05-17T09:11:50Z</time>
      </trkpt>
      <trkpt lat="43.5819" lon="6.77912">
        <ele>163.08</ele>
        <time>2012-05-17T09:11:54Z</time>
      </trkpt>
      <trkpt lat="43.58178" lon="6.77879">
        <ele>164.04</ele>
        <time>2012-05-17T09:12:10Z</time>
      </trkpt>
      <trkpt lat="43.58178" lon="6.77839">
        <ele>164.04</ele>
        <time>2012-05-17T09:12:23Z</time>
      </trkpt>
      <trkpt lat="43.58168" lon="6.7779">
        <ele>163.08</ele>
        <time>2012-05-17T09:12:34Z</time>
      </trkpt>
      <trkpt lat="43.58174" lon="6.77753">
        <ele>163.08</ele>
        <time>2012-05-17T09:12:45Z</time>
      </trkpt>
      <trkpt lat="43.5818" lon="6.77724">
        <ele>162.6</ele>
        <time>2012-05-17T09:12:50Z</time>
      </trkpt>
      <trkpt lat="43.58182" lon="6.77668">
        <ele>159.24</ele>
        <time>2012-05-17T09:13:00Z</time>
      </trkpt>
      <trkpt lat="43.58184" lon="6.77649">
        <ele>157.79</ele>
        <time>2012-05-17T09:13:03Z</time>
      </trkpt>
      <trkpt lat="43.58191" lon="6.77635">
        <ele>156.83</ele>
        <time>2012-05-17T09:13:06Z</time>
      </trkpt>
      <trkpt lat="43.582" lon="6.77618">
        <ele>155.87</ele>
        <time>2012-05-17T09:13:09Z</time>
      </trkpt>
      <trkpt lat="43.58224" lon="6.77571">
        <ele>153.95</ele>
        <time>2012-05-17T09:13:16Z</time>
      </trkpt>
      <trkpt lat="43.58234" lon="6.77548">
        <ele>152.51</ele>
        <time>2012-05-17T09:13:19Z</time>
      </trkpt>
      <trkpt lat="43.58248" lon="6.77496">
        <ele>151.06</ele>
        <time>2012-05-17T09:13:26Z</time>
      </trkpt>
      <trkpt lat="43.58251" lon="6.77482">
        <ele>150.58</ele>
        <time>2012-05-17T09:13:28Z</time>
      </trkpt>
      <trkpt lat="43.58255" lon="6.77464">
        <ele>149.62</ele>
        <time>2012-05-17T09:13:31Z</time>
      </trkpt>
      <trkpt lat="43.58265" lon="6.77442">
        <ele>148.18</ele>
        <time>2012-05-17T09:13:35Z</time>
      </trkpt>
      <trkpt lat="43.58252" lon="6.77417">
        <ele>146.26</ele>
        <time>2012-05-17T09:13:43Z</time>
      </trkpt>
      <trkpt lat="43.58246" lon="6.77415">
        <ele>146.26</ele>
        <time>2012-05-17T09:13:45Z</time>
      </trkpt>
      <trkpt lat="43.58232" lon="6.77392">
        <ele>143.85</ele>
        <time>2012-05-17T09:13:51Z</time>
      </trkpt>
      <trkpt lat="43.58241" lon="6.77368">
        <ele>142.89</ele>
        <time>2012-05-17T09:14:01Z</time>
      </trkpt>
      <trkpt lat="43.58242" lon="6.77366">
        <ele>142.89</ele>
        <time>2012-05-17T09:14:02Z</time>
      </trkpt>
      <trkpt lat="43.58262" lon="6.77349">
        <ele>142.89</ele>
        <time>2012-05-17T09:14:08Z</time>
      </trkpt>
      <trkpt lat="43.58273" lon="6.77342">
        <ele>142.89</ele>
        <time>2012-05-17T09:14:11Z</time>
      </trkpt>
      <trkpt lat="43.58288" lon="6.7732">
        <ele>143.85</ele>
        <time>2012-05-17T09:14:19Z</time>
      </trkpt>
      <trkpt lat="43.58274" lon="6.77279">
        <ele>145.3</ele>
        <time>2012-05-17T09:14:28Z</time>
      </trkpt>
      <trkpt lat="43.58259" lon="6.7726">
        <ele>144.34</ele>
        <time>2012-05-17T09:14:32Z</time>
      </trkpt>
      <trkpt lat="43.58222" lon="6.77248">
        <ele>144.82</ele>
        <time>2012-05-17T09:14:41Z</time>
      </trkpt>
      <trkpt lat="43.58197" lon="6.77236">
        <ele>144.34</ele>
        <time>2012-05-17T09:14:47Z</time>
      </trkpt>
      <trkpt lat="43.58168" lon="6.77231">
        <ele>145.78</ele>
        <time>2012-05-17T09:14:57Z</time>
      </trkpt>
      <trkpt lat="43.5812" lon="6.7723">
        <ele>144.82</ele>
        <time>2012-05-17T09:15:09Z</time>
      </trkpt>
      <trkpt lat="43.58105" lon="6.77224">
        <ele>144.34</ele>
        <time>2012-05-17T09:15:12Z</time>
      </trkpt>
      <trkpt lat="43.58084" lon="6.77209">
        <ele>144.82</ele>
        <time>2012-05-17T09:15:19Z</time>
      </trkpt>
      <trkpt lat="43.58057" lon="6.77192">
        <ele>143.85</ele>
        <time>2012-05-17T09:15:33Z</time>
      </trkpt>
      <trkpt lat="43.58057" lon="6.7719">
        <ele>143.37</ele>
        <time>2012-05-17T09:15:42Z</time>
      </trkpt>
      <trkpt lat="43.58058" lon="6.7718">
        <ele>143.37</ele>
        <time>2012-05-17T09:15:50Z</time>
      </trkpt>
      <trkpt lat="43.58054" lon="6.7718">
        <ele>142.89</ele>
        <time>2012-05-17T09:15:59Z</time>
      </trkpt>
      <trkpt lat="43.58053" lon="6.77185">
        <ele>142.89</ele>
        <time>2012-05-17T09:16:02Z</time>
      </trkpt>
      <trkpt lat="43.58046" lon="6.77186">
        <ele>142.41</ele>
        <time>2012-05-17T09:16:15Z</time>
      </trkpt>
      <trkpt lat="43.58042" lon="6.77188">
        <ele>141.93</ele>
        <time>2012-05-17T09:16:32Z</time>
      </trkpt>
      <trkpt lat="43.58041" lon="6.77189">
        <ele>141.93</ele>
        <time>2012-05-17T09:16:35Z</time>
      </trkpt>
      <trkpt lat="43.58041" lon="6.77191">
        <ele>142.41</ele>
        <time>2012-05-17T09:16:54Z</time>
      </trkpt>
      <trkpt lat="43.5804" lon="6.77188">
        <ele>142.41</ele>
        <time>2012-05-17T09:17:07Z</time>
      </trkpt>
      <trkpt lat="43.58037" lon="6.77188">
        <ele>141.93</ele>
        <time>2012-05-17T09:17:10Z</time>
      </trkpt>
      <trkpt lat="43.58033" lon="6.77179">
        <ele>142.41</ele>
        <time>2012-05-17T09:17:20Z</time>
      </trkpt>
      <trkpt lat="43.58034" lon="6.77168">
        <ele>142.89</ele>
        <time>2012-05-17T09:17:34Z</time>
      </trkpt>
      <trkpt lat="43.58034" lon="6.77168">
        <ele>142.89</ele>
        <time>2012-05-17T09:17:36Z</time>
      </trkpt>
      <trkpt lat="43.58042" lon="6.77162">
        <ele>143.37</ele>
        <time>2012-05-17T09:17:41Z</time>
      </trkpt>
      <trkpt lat="43.58066" lon="6.77155">
        <ele>144.34</ele>
        <time>2012-05-17T09:17:54Z</time>
      </trkpt>
      <trkpt lat="43.58097" lon="6.77146">
        <ele>144.82</ele>
        <time>2012-05-17T09:18:07Z</time>
      </trkpt>
      <trkpt lat="43.58127" lon="6.77174">
        <ele>145.78</ele>
        <time>2012-05-17T09:18:21Z</time>
      </trkpt>
      <trkpt lat="43.58159" lon="6.7717">
        <ele>146.26</ele>
        <time>2012-05-17T09:18:33Z</time>
      </trkpt>
      <trkpt lat="43.58195" lon="6.77181">
        <ele>146.26</ele>
        <time>2012-05-17T09:18:45Z</time>
      </trkpt>
      <trkpt lat="43.58243" lon="6.77196">
        <ele>147.22</ele>
        <time>2012-05-17T09:19:04Z</time>
      </trkpt>
      <trkpt lat="43.5827" lon="6.77192">
        <ele>150.58</ele>
        <time>2012-05-17T09:19:19Z</time>
      </trkpt>
      <trkpt lat="43.58289" lon="6.77188">
        <ele>153.47</ele>
        <time>2012-05-17T09:19:33Z</time>
      </trkpt>
      <trkpt lat="43.58312" lon="6.77181">
        <ele>155.87</ele>
        <time>2012-05-17T09:19:47Z</time>
      </trkpt>
      <trkpt lat="43.58339" lon="6.77179">
        <ele>157.79</ele>
        <time>2012-05-17T09:20:04Z</time>
      </trkpt>
      <trkpt lat="43.58374" lon="6.77182">
        <ele>157.31</ele>
        <time>2012-05-17T09:20:20Z</time>
      </trkpt>
      <trkpt lat="43.58382" lon="6.77182">
        <ele>156.83</ele>
        <time>2012-05-17T09:20:22Z</time>
      </trkpt>
      <trkpt lat="43.584" lon="6.77184">
        <ele>156.35</ele>
        <time>2012-05-17T09:20:26Z</time>
      </trkpt>
      <trkpt lat="43.58418" lon="6.7719">
        <ele>155.39</ele>
        <time>2012-05-17T09:20:30Z</time>
      </trkpt>
      <trkpt lat="43.58458" lon="6.77185">
        <ele>154.43</ele>
        <time>2012-05-17T09:20:37Z</time>
      </trkpt>
      <trkpt lat="43.58471" lon="6.77182">
        <ele>153.95</ele>
        <time>2012-05-17T09:20:40Z</time>
      </trkpt>
      <trkpt lat="43.58491" lon="6.77178">
        <ele>153.47</ele>
        <time>2012-05-17T09:20:45Z</time>
      </trkpt>
      <trkpt lat="43.58509" lon="6.77171">
        <ele>152.99</ele>
        <time>2012-05-17T09:20:49Z</time>
      </trkpt>
      <trkpt lat="43.58542" lon="6.77157">
        <ele>151.54</ele>
        <time>2012-05-17T09:20:56Z</time>
      </trkpt>
      <trkpt lat="43.58595" lon="6.77146">
        <ele>147.7</ele>
        <time>2012-05-17T09:21:05Z</time>
      </trkpt>
      <trkpt lat="43.586" lon="6.77145">
        <ele>147.7</ele>
        <time>2012-05-17T09:21:06Z</time>
      </trkpt>
      <trkpt lat="43.58644" lon="6.77146">
        <ele>146.74</ele>
        <time>2012-05-17T09:21:16Z</time>
      </trkpt>
      <trkpt lat="43.58667" lon="6.77131">
        <ele>148.66</ele>
        <time>2012-05-17T09:21:27Z</time>
      </trkpt>
      <trkpt lat="43.58678" lon="6.77105">
        <ele>151.54</ele>
        <time>2012-05-17T09:21:41Z</time>
      </trkpt>
      <trkpt lat="43.5868" lon="6.77083">
        <ele>154.91</ele>
        <time>2012-05-17T09:21:52Z</time>
      </trkpt>
      <trkpt lat="43.5867" lon="6.77065">
        <ele>158.27</ele>
        <time>2012-05-17T09:22:03Z</time>
      </trkpt>
      <trkpt lat="43.58656" lon="6.77045">
        <ele>161.16</ele>
        <time>2012-05-17T09:22:18Z</time>
      </trkpt>
      <trkpt lat="43.58645" lon="6.77023">
        <ele>164.04</ele>
        <time>2012-05-17T09:22:33Z</time>
      </trkpt>
      <trkpt lat="43.58638" lon="6.76999">
        <ele>167.41</ele>
        <time>2012-05-17T09:22:48Z</time>
      </trkpt>
      <trkpt lat="43.58623" lon="6.76978">
        <ele>170.77</ele>
        <time>2012-05-17T09:23:06Z</time>
      </trkpt>
      <trkpt lat="43.58605" lon="6.76963">
        <ele>173.66</ele>
        <time>2012-05-17T09:23:24Z</time>
      </trkpt>
      <trkpt lat="43.58583" lon="6.76947">
        <ele>177.02</ele>
        <time>2012-05-17T09:23:43Z</time>
      </trkpt>
      <trkpt lat="43.58558" lon="6.76929">
        <ele>179.9</ele>
        <time>2012-05-17T09:24:06Z</time>
      </trkpt>
      <trkpt lat="43.58546" lon="6.76903">
        <ele>182.31</ele>
        <time>2012-05-17T09:24:23Z</time>
      </trkpt>
      <trkpt lat="43.58538" lon="6.76865">
        <ele>185.19</ele>
        <time>2012-05-17T09:24:45Z</time>
      </trkpt>
      <trkpt lat="43.5853" lon="6.76821">
        <ele>186.63</ele>
        <time>2012-05-17T09:25:07Z</time>
      </trkpt>
      <trkpt lat="43.58531" lon="6.76793">
        <ele>188.56</ele>
        <time>2012-05-17T09:25:24Z</time>
      </trkpt>
      <trkpt lat="43.58534" lon="6.76767">
        <ele>190.96</ele>
        <time>2012-05-17T09:25:39Z</time>
      </trkpt>
      <trkpt lat="43.58535" lon="6.76736">
        <ele>192.88</ele>
        <time>2012-05-17T09:25:56Z</time>
      </trkpt>
      <trkpt lat="43.58531" lon="6.76704">
        <ele>196.25</ele>
        <time>2012-05-17T09:26:15Z</time>
      </trkpt>
      <trkpt lat="43.58529" lon="6.76697">
        <ele>196.25</ele>
        <time>2012-05-17T09:26:19Z</time>
      </trkpt>
      <trkpt lat="43.58528" lon="6.76692">
        <ele>196.73</ele>
        <time>2012-05-17T09:26:23Z</time>
      </trkpt>
      <trkpt lat="43.58526" lon="6.76663">
        <ele>199.13</ele>
        <time>2012-05-17T09:26:40Z</time>
      </trkpt>
      <trkpt lat="43.58526" lon="6.7663">
        <ele>201.53</ele>
        <time>2012-05-17T09:26:59Z</time>
      </trkpt>
      <trkpt lat="43.5853" lon="6.76596">
        <ele>204.9</ele>
        <time>2012-05-17T09:27:18Z</time>
      </trkpt>
      <trkpt lat="43.58533" lon="6.76567">
        <ele>206.82</ele>
        <time>2012-05-17T09:27:34Z</time>
      </trkpt>
      <trkpt lat="43.58522" lon="6.76534">
        <ele>209.7</ele>
        <time>2012-05-17T09:27:55Z</time>
      </trkpt>
      <trkpt lat="43.58502" lon="6.76502">
        <ele>211.63</ele>
        <time>2012-05-17T09:28:18Z</time>
      </trkpt>
      <trkpt lat="43.5848" lon="6.76479">
        <ele>212.59</ele>
        <time>2012-05-17T09:28:38Z</time>
      </trkpt>
      <trkpt lat="43.58456" lon="6.76463">
        <ele>213.55</ele>
        <time>2012-05-17T09:28:56Z</time>
      </trkpt>
      <trkpt lat="43.58449" lon="6.76459">
        <ele>214.03</ele>
        <time>2012-05-17T09:29:02Z</time>
      </trkpt>
      <trkpt lat="43.58444" lon="6.76456">
        <ele>214.03</ele>
        <time>2012-05-17T09:29:06Z</time>
      </trkpt>
      <trkpt lat="43.5844" lon="6.76456">
        <ele>214.03</ele>
        <time>2012-05-17T09:29:19Z</time>
      </trkpt>
      <trkpt lat="43.58441" lon="6.76452">
        <ele>214.03</ele>
        <time>2012-05-17T09:31:45Z</time>
      </trkpt>
      <trkpt lat="43.58439" lon="6.76454">
        <ele>214.51</ele>
        <time>2012-05-17T09:32:49Z</time>
      </trkpt>
      <trkpt lat="43.58438" lon="6.76449">
        <ele>214.99</ele>
        <time>2012-05-17T09:35:12Z</time>
      </trkpt>
      <trkpt lat="43.58437" lon="6.76447">
        <ele>214.99</ele>
        <time>2012-05-17T09:35:44Z</time>
      </trkpt>
      <trkpt lat="43.58437" lon="6.76446">
        <ele>214.51</ele>
        <time>2012-05-17T09:35:47Z</time>
      </trkpt>
      <trkpt lat="43.58415" lon="6.7643">
        <ele>215.47</ele>
        <time>2012-05-17T09:36:04Z</time>
      </trkpt>
      <trkpt lat="43.58379" lon="6.76399">
        <ele>214.99</ele>
        <time>2012-05-17T09:36:21Z</time>
      </trkpt>
      <trkpt lat="43.58342" lon="6.76364">
        <ele>214.99</ele>
        <time>2012-05-17T09:36:37Z</time>
      </trkpt>
      <trkpt lat="43.58309" lon="6.76342">
        <ele>215.95</ele>
        <time>2012-05-17T09:36:54Z</time>
      </trkpt>
      <trkpt lat="43.58285" lon="6.76307">
        <ele>216.43</ele>
        <time>2012-05-17T09:37:11Z</time>
      </trkpt>
      <trkpt lat="43.58269" lon="6.76287">
        <ele>219.32</ele>
        <time>2012-05-17T09:37:27Z</time>
      </trkpt>
      <trkpt lat="43.58263" lon="6.76272">
        <ele>220.28</ele>
        <time>2012-05-17T09:37:36Z</time>
      </trkpt>
      <trkpt lat="43.5826" lon="6.76257">
        <ele>222.68</ele>
        <time>2012-05-17T09:37:47Z</time>
      </trkpt>
      <trkpt lat="43.58271" lon="6.76233">
        <ele>225.57</ele>
        <time>2012-05-17T09:38:04Z</time>
      </trkpt>
      <trkpt lat="43.58276" lon="6.76227">
        <ele>226.53</ele>
        <time>2012-05-17T09:38:10Z</time>
      </trkpt>
      <trkpt lat="43.58278" lon="6.76225">
        <ele>227.01</ele>
        <time>2012-05-17T09:38:13Z</time>
      </trkpt>
      <trkpt lat="43.58283" lon="6.76221">
        <ele>227.01</ele>
        <time>2012-05-17T09:38:18Z</time>
      </trkpt>
      <trkpt lat="43.58283" lon="6.76216">
        <ele>227.49</ele>
        <time>2012-05-17T09:38:21Z</time>
      </trkpt>
      <trkpt lat="43.5828" lon="6.7621">
        <ele>228.45</ele>
        <time>2012-05-17T09:38:27Z</time>
      </trkpt>
      <trkpt lat="43.58261" lon="6.76209">
        <ele>231.33</ele>
        <time>2012-05-17T09:38:43Z</time>
      </trkpt>
      <trkpt lat="43.58249" lon="6.76209">
        <ele>232.3</ele>
        <time>2012-05-17T09:38:53Z</time>
      </trkpt>
      <trkpt lat="43.58245" lon="6.76203">
        <ele>232.78</ele>
        <time>2012-05-17T09:38:57Z</time>
      </trkpt>
      <trkpt lat="43.58254" lon="6.76174">
        <ele>236.14</ele>
        <time>2012-05-17T09:39:15Z</time>
      </trkpt>
      <trkpt lat="43.58267" lon="6.76145">
        <ele>239.02</ele>
        <time>2012-05-17T09:39:34Z</time>
      </trkpt>
      <trkpt lat="43.58274" lon="6.76114">
        <ele>241.91</ele>
        <time>2012-05-17T09:39:53Z</time>
      </trkpt>
      <trkpt lat="43.5828" lon="6.76089">
        <ele>245.27</ele>
        <time>2012-05-17T09:40:10Z</time>
      </trkpt>
      <trkpt lat="43.58285" lon="6.76061">
        <ele>247.68</ele>
        <time>2012-05-17T09:40:27Z</time>
      </trkpt>
      <trkpt lat="43.5829" lon="6.76038">
        <ele>249.6</ele>
        <time>2012-05-17T09:40:44Z</time>
      </trkpt>
      <trkpt lat="43.58292" lon="6.7601">
        <ele>252.48</ele>
        <time>2012-05-17T09:41:05Z</time>
      </trkpt>
      <trkpt lat="43.58291" lon="6.75981">
        <ele>255.85</ele>
        <time>2012-05-17T09:41:31Z</time>
      </trkpt>
      <trkpt lat="43.58291" lon="6.75957">
        <ele>258.25</ele>
        <time>2012-05-17T09:41:52Z</time>
      </trkpt>
      <trkpt lat="43.58292" lon="6.75934">
        <ele>259.69</ele>
        <time>2012-05-17T09:42:12Z</time>
      </trkpt>
      <trkpt lat="43.58292" lon="6.75912">
        <ele>262.58</ele>
        <time>2012-05-17T09:42:34Z</time>
      </trkpt>
      <trkpt lat="43.58291" lon="6.75898">
        <ele>264.02</ele>
        <time>2012-05-17T09:42:49Z</time>
      </trkpt>
      <trkpt lat="43.58285" lon="6.75886">
        <ele>265.46</ele>
        <time>2012-05-17T09:43:04Z</time>
      </trkpt>
      <trkpt lat="43.58281" lon="6.75862">
        <ele>268.83</ele>
        <time>2012-05-17T09:43:25Z</time>
      </trkpt>
      <trkpt lat="43.58277" lon="6.75836">
        <ele>271.23</ele>
        <time>2012-05-17T09:43:53Z</time>
      </trkpt>
      <trkpt lat="43.58276" lon="6.75813">
        <ele>272.67</ele>
        <time>2012-05-17T09:44:16Z</time>
      </trkpt>
      <trkpt lat="43.58277" lon="6.75795">
        <ele>273.15</ele>
        <time>2012-05-17T09:44:34Z</time>
      </trkpt>
      <trkpt lat="43.58281" lon="6.75774">
        <ele>274.11</ele>
        <time>2012-05-17T09:44:52Z</time>
      </trkpt>
      <trkpt lat="43.58283" lon="6.75752">
        <ele>275.07</ele>
        <time>2012-05-17T09:45:10Z</time>
      </trkpt>
      <trkpt lat="43.58284" lon="6.75724">
        <ele>276.52</ele>
        <time>2012-05-17T09:45:33Z</time>
      </trkpt>
      <trkpt lat="43.58282" lon="6.75696">
        <ele>277.96</ele>
        <time>2012-05-17T09:45:57Z</time>
      </trkpt>
      <trkpt lat="43.5828" lon="6.75687">
        <ele>278.44</ele>
        <time>2012-05-17T09:46:13Z</time>
      </trkpt>
      <trkpt lat="43.58275" lon="6.75664">
        <ele>278.92</ele>
        <time>2012-05-17T09:46:29Z</time>
      </trkpt>
      <trkpt lat="43.58267" lon="6.75623">
        <ele>280.84</ele>
        <time>2012-05-17T09:46:53Z</time>
      </trkpt>
      <trkpt lat="43.58265" lon="6.7558">
        <ele>281.8</ele>
        <time>2012-05-17T09:47:13Z</time>
      </trkpt>
      <trkpt lat="43.58274" lon="6.7553">
        <ele>281.32</ele>
        <time>2012-05-17T09:47:30Z</time>
      </trkpt>
      <trkpt lat="43.5828" lon="6.75483">
        <ele>282.28</ele>
        <time>2012-05-17T09:47:46Z</time>
      </trkpt>
      <trkpt lat="43.58293" lon="6.75416">
        <ele>281.8</ele>
        <time>2012-05-17T09:48:05Z</time>
      </trkpt>
      <trkpt lat="43.58296" lon="6.7535">
        <ele>280.36</ele>
        <time>2012-05-17T09:48:21Z</time>
      </trkpt>
      <trkpt lat="43.58305" lon="6.75301">
        <ele>277.96</ele>
        <time>2012-05-17T09:48:34Z</time>
      </trkpt>
      <trkpt lat="43.58307" lon="6.75296">
        <ele>276.52</ele>
        <time>2012-05-17T09:48:40Z</time>
      </trkpt>
      <trkpt lat="43.583" lon="6.75305">
        <ele>277.48</ele>
        <time>2012-05-17T09:48:55Z</time>
      </trkpt>
      <trkpt lat="43.58301" lon="6.75305">
        <ele>277.96</ele>
        <time>2012-05-17T09:49:09Z</time>
      </trkpt>
      <trkpt lat="43.583" lon="6.75304">
        <ele>277.48</ele>
        <time>2012-05-17T09:49:30Z</time>
      </trkpt>
      <trkpt lat="43.583" lon="6.75304">
        <ele>277.48</ele>
        <time>2012-05-17T09:49:32Z</time>
      </trkpt>
      <trkpt lat="43.58306" lon="6.75294">
        <ele>277</ele>
        <time>2012-05-17T09:49:43Z</time>
      </trkpt>
      <trkpt lat="43.58313" lon="6.75294">
        <ele>277</ele>
        <time>2012-05-17T09:49:56Z</time>
      </trkpt>
      <trkpt lat="43.58316" lon="6.75293">
        <ele>277.48</ele>
        <time>2012-05-17T09:50:08Z</time>
      </trkpt>
      <trkpt lat="43.58314" lon="6.75288">
        <ele>277</ele>
        <time>2012-05-17T09:50:25Z</time>
      </trkpt>
      <trkpt lat="43.58305" lon="6.75294">
        <ele>277</ele>
        <time>2012-05-17T09:51:21Z</time>
      </trkpt>
      <trkpt lat="43.58305" lon="6.753">
        <ele>277.48</ele>
        <time>2012-05-17T09:51:25Z</time>
      </trkpt>
      <trkpt lat="43.58303" lon="6.75302">
        <ele>277.96</ele>
        <time>2012-05-17T09:51:40Z</time>
      </trkpt>
      <trkpt lat="43.58303" lon="6.75298">
        <ele>277.96</ele>
        <time>2012-05-17T09:51:57Z</time>
      </trkpt>
      <trkpt lat="43.58304" lon="6.75297">
        <ele>277.96</ele>
        <time>2012-05-17T09:51:59Z</time>
      </trkpt>
      <trkpt lat="43.58303" lon="6.75302">
        <ele>277.96</ele>
        <time>2012-05-17T09:52:11Z</time>
      </trkpt>
      <trkpt lat="43.58303" lon="6.75299">
        <ele>278.44</ele>
        <time>2012-05-17T09:52:26Z</time>
      </trkpt>
      <trkpt lat="43.58302" lon="6.75298">
        <ele>278.44</ele>
        <time>2012-05-17T09:53:52Z</time>
      </trkpt>
      <trkpt lat="43.58303" lon="6.75298">
        <ele>278.44</ele>
        <time>2012-05-17T09:54:45Z</time>
      </trkpt>
      <trkpt lat="43.58307" lon="6.75299">
        <ele>278.44</ele>
        <time>2012-05-17T09:55:20Z</time>
      </trkpt>
      <trkpt lat="43.58306" lon="6.753">
        <ele>278.92</ele>
        <time>2012-05-17T09:56:05Z</time>
      </trkpt>
      <trkpt lat="43.583" lon="6.75301">
        <ele>278.44</ele>
        <time>2012-05-17T09:56:39Z</time>
      </trkpt>
      <trkpt lat="43.58299" lon="6.753">
        <ele>279.4</ele>
        <time>2012-05-17T09:56:59Z</time>
      </trkpt>
      <trkpt lat="43.583" lon="6.75301">
        <ele>279.88</ele>
        <time>2012-05-17T09:57:30Z</time>
      </trkpt>
      <trkpt lat="43.58301" lon="6.75302">
        <ele>278.92</ele>
        <time>2012-05-17T09:57:56Z</time>
      </trkpt>
      <trkpt lat="43.58303" lon="6.75301">
        <ele>278.92</ele>
        <time>2012-05-17T09:58:15Z</time>
      </trkpt>
      <trkpt lat="43.58303" lon="6.753">
        <ele>278.92</ele>
        <time>2012-05-17T09:58:28Z</time>
      </trkpt>
      <trkpt lat="43.58305" lon="6.75297">
        <ele>279.4</ele>
        <time>2012-05-17T09:58:32Z</time>
      </trkpt>
      <trkpt lat="43.58311" lon="6.75254">
        <ele>276.04</ele>
        <time>2012-05-17T09:58:48Z</time>
      </trkpt>
      <trkpt lat="43.58298" lon="6.75219">
        <ele>273.15</ele>
        <time>2012-05-17T09:59:01Z</time>
      </trkpt>
      <trkpt lat="43.58288" lon="6.75185">
        <ele>270.75</ele>
        <time>2012-05-17T09:59:13Z</time>
      </trkpt>
      <trkpt lat="43.58265" lon="6.75168">
        <ele>268.83</ele>
        <time>2012-05-17T09:59:23Z</time>
      </trkpt>
      <trkpt lat="43.58254" lon="6.75122">
        <ele>265.46</ele>
        <time>2012-05-17T09:59:30Z</time>
      </trkpt>
      <trkpt lat="43.58238" lon="6.75019">
        <ele>263.06</ele>
        <time>2012-05-17T09:59:43Z</time>
      </trkpt>
      <trkpt lat="43.58235" lon="6.75002">
        <ele>262.58</ele>
        <time>2012-05-17T09:59:46Z</time>
      </trkpt>
      <trkpt lat="43.58202" lon="6.74937">
        <ele>264.5</ele>
        <time>2012-05-17T10:00:01Z</time>
      </trkpt>
      <trkpt lat="43.5817" lon="6.74891">
        <ele>266.42</ele>
        <time>2012-05-17T10:00:17Z</time>
      </trkpt>
      <trkpt lat="43.58151" lon="6.74837">
        <ele>265.94</ele>
        <time>2012-05-17T10:00:29Z</time>
      </trkpt>
      <trkpt lat="43.58143" lon="6.7482">
        <ele>265.46</ele>
        <time>2012-05-17T10:00:33Z</time>
      </trkpt>
      <trkpt lat="43.58139" lon="6.74754">
        <ele>263.54</ele>
        <time>2012-05-17T10:00:43Z</time>
      </trkpt>
      <trkpt lat="43.58138" lon="6.74715">
        <ele>263.06</ele>
        <time>2012-05-17T10:00:48Z</time>
      </trkpt>
      <trkpt lat="43.58114" lon="6.74679">
        <ele>261.62</ele>
        <time>2012-05-17T10:00:55Z</time>
      </trkpt>
      <trkpt lat="43.58095" lon="6.74688">
        <ele>262.58</ele>
        <time>2012-05-17T10:01:00Z</time>
      </trkpt>
      <trkpt lat="43.58082" lon="6.74672">
        <ele>264.5</ele>
        <time>2012-05-17T10:01:11Z</time>
      </trkpt>
      <trkpt lat="43.58089" lon="6.74635">
        <ele>266.9</ele>
        <time>2012-05-17T10:01:25Z</time>
      </trkpt>
      <trkpt lat="43.58104" lon="6.74615">
        <ele>269.79</ele>
        <time>2012-05-17T10:01:38Z</time>
      </trkpt>
      <trkpt lat="43.58111" lon="6.74582">
        <ele>273.15</ele>
        <time>2012-05-17T10:01:52Z</time>
      </trkpt>
      <trkpt lat="43.58122" lon="6.7455">
        <ele>275.07</ele>
        <time>2012-05-17T10:02:08Z</time>
      </trkpt>
      <trkpt lat="43.5813" lon="6.74526">
        <ele>278.44</ele>
        <time>2012-05-17T10:02:21Z</time>
      </trkpt>
      <trkpt lat="43.5814" lon="6.74496">
        <ele>281.32</ele>
        <time>2012-05-17T10:02:39Z</time>
      </trkpt>
      <trkpt lat="43.58146" lon="6.74465">
        <ele>281.8</ele>
        <time>2012-05-17T10:02:54Z</time>
      </trkpt>
      <trkpt lat="43.58147" lon="6.74456">
        <ele>282.28</ele>
        <time>2012-05-17T10:02:59Z</time>
      </trkpt>
      <trkpt lat="43.58147" lon="6.74449">
        <ele>282.28</ele>
        <time>2012-05-17T10:03:04Z</time>
      </trkpt>
      <trkpt lat="43.58146" lon="6.7444">
        <ele>282.77</ele>
        <time>2012-05-17T10:03:16Z</time>
      </trkpt>
      <trkpt lat="43.58146" lon="6.74439">
        <ele>282.77</ele>
        <time>2012-05-17T10:03:17Z</time>
      </trkpt>
      <trkpt lat="43.58149" lon="6.74431">
        <ele>283.25</ele>
        <time>2012-05-17T10:03:33Z</time>
      </trkpt>
      <trkpt lat="43.5815" lon="6.74432">
        <ele>283.25</ele>
        <time>2012-05-17T10:03:46Z</time>
      </trkpt>
      <trkpt lat="43.5815" lon="6.74434">
        <ele>283.25</ele>
        <time>2012-05-17T10:03:57Z</time>
      </trkpt>
      <trkpt lat="43.58151" lon="6.74434">
        <ele>283.25</ele>
        <time>2012-05-17T10:04:09Z</time>
      </trkpt>
      <trkpt lat="43.58151" lon="6.74431">
        <ele>283.73</ele>
        <time>2012-05-17T10:04:43Z</time>
      </trkpt>
      <trkpt lat="43.58151" lon="6.74431">
        <ele>284.21</ele>
        <time>2012-05-17T10:05:38Z</time>
      </trkpt>
      <trkpt lat="43.58151" lon="6.74433">
        <ele>283.25</ele>
        <time>2012-05-17T10:06:03Z</time>
      </trkpt>
      <trkpt lat="43.58151" lon="6.7443">
        <ele>284.21</ele>
        <time>2012-05-17T10:06:54Z</time>
      </trkpt>
      <trkpt lat="43.58152" lon="6.74427">
        <ele>283.73</ele>
        <time>2012-05-17T10:07:27Z</time>
      </trkpt>
      <trkpt lat="43.58159" lon="6.74407">
        <ele>284.69</ele>
        <time>2012-05-17T10:07:58Z</time>
      </trkpt>
      <trkpt lat="43.58167" lon="6.74373">
        <ele>285.65</ele>
        <time>2012-05-17T10:08:13Z</time>
      </trkpt>
      <trkpt lat="43.58171" lon="6.74334">
        <ele>288.53</ele>
        <time>2012-05-17T10:08:30Z</time>
      </trkpt>
      <trkpt lat="43.58172" lon="6.74289">
        <ele>291.42</ele>
        <time>2012-05-17T10:08:49Z</time>
      </trkpt>
      <trkpt lat="43.58172" lon="6.74282">
        <ele>291.9</ele>
        <time>2012-05-17T10:08:52Z</time>
      </trkpt>
      <trkpt lat="43.58178" lon="6.74248">
        <ele>292.86</ele>
        <time>2012-05-17T10:09:06Z</time>
      </trkpt>
      <trkpt lat="43.58193" lon="6.74202">
        <ele>296.22</ele>
        <time>2012-05-17T10:09:26Z</time>
      </trkpt>
      <trkpt lat="43.58209" lon="6.74154">
        <ele>297.67</ele>
        <time>2012-05-17T10:09:46Z</time>
      </trkpt>
      <trkpt lat="43.58216" lon="6.74116">
        <ele>297.67</ele>
        <time>2012-05-17T10:09:59Z</time>
      </trkpt>
      <trkpt lat="43.58237" lon="6.74035">
        <ele>297.18</ele>
        <time>2012-05-17T10:10:18Z</time>
      </trkpt>
      <trkpt lat="43.58256" lon="6.73962">
        <ele>293.82</ele>
        <time>2012-05-17T10:10:31Z</time>
      </trkpt>
      <trkpt lat="43.58265" lon="6.739">
        <ele>291.9</ele>
        <time>2012-05-17T10:10:42Z</time>
      </trkpt>
      <trkpt lat="43.58258" lon="6.73854">
        <ele>289.97</ele>
        <time>2012-05-17T10:10:47Z</time>
      </trkpt>
      <trkpt lat="43.58225" lon="6.73805">
        <ele>286.61</ele>
        <time>2012-05-17T10:10:54Z</time>
      </trkpt>
      <trkpt lat="43.58212" lon="6.73788">
        <ele>285.65</ele>
        <time>2012-05-17T10:10:56Z</time>
      </trkpt>
      <trkpt lat="43.58186" lon="6.73752">
        <ele>282.28</ele>
        <time>2012-05-17T10:11:00Z</time>
      </trkpt>
      <trkpt lat="43.58179" lon="6.73743">
        <ele>281.8</ele>
        <time>2012-05-17T10:11:01Z</time>
      </trkpt>
      <trkpt lat="43.58158" lon="6.73699">
        <ele>279.4</ele>
        <time>2012-05-17T10:11:06Z</time>
      </trkpt>
      <trkpt lat="43.58156" lon="6.73666">
        <ele>278.44</ele>
        <time>2012-05-17T10:11:09Z</time>
      </trkpt>
      <trkpt lat="43.58131" lon="6.73601">
        <ele>274.11</ele>
        <time>2012-05-17T10:11:15Z</time>
      </trkpt>
      <trkpt lat="43.58126" lon="6.73589">
        <ele>274.11</ele>
        <time>2012-05-17T10:11:16Z</time>
      </trkpt>
      <trkpt lat="43.58096" lon="6.73531">
        <ele>271.23</ele>
        <time>2012-05-17T10:11:21Z</time>
      </trkpt>
      <trkpt lat="43.58052" lon="6.73441">
        <ele>268.83</ele>
        <time>2012-05-17T10:11:30Z</time>
      </trkpt>
      <trkpt lat="43.58043" lon="6.73418">
        <ele>268.35</ele>
        <time>2012-05-17T10:11:33Z</time>
      </trkpt>
      <trkpt lat="43.58036" lon="6.73403">
        <ele>268.35</ele>
        <time>2012-05-17T10:11:35Z</time>
      </trkpt>
      <trkpt lat="43.58018" lon="6.73378">
        <ele>267.86</ele>
        <time>2012-05-17T10:11:39Z</time>
      </trkpt>
      <trkpt lat="43.58004" lon="6.73354">
        <ele>267.38</ele>
        <time>2012-05-17T10:11:43Z</time>
      </trkpt>
      <trkpt lat="43.57983" lon="6.73298">
        <ele>269.79</ele>
        <time>2012-05-17T10:11:57Z</time>
      </trkpt>
      <trkpt lat="43.57948" lon="6.73251">
        <ele>272.19</ele>
        <time>2012-05-17T10:12:15Z</time>
      </trkpt>
      <trkpt lat="43.5793" lon="6.73227">
        <ele>273.15</ele>
        <time>2012-05-17T10:12:26Z</time>
      </trkpt>
      <trkpt lat="43.57916" lon="6.7321">
        <ele>274.59</ele>
        <time>2012-05-17T10:12:34Z</time>
      </trkpt>
      <trkpt lat="43.5789" lon="6.73178">
        <ele>277.48</ele>
        <time>2012-05-17T10:12:51Z</time>
      </trkpt>
      <trkpt lat="43.57859" lon="6.73141">
        <ele>279.88</ele>
        <time>2012-05-17T10:13:11Z</time>
      </trkpt>
      <trkpt lat="43.57837" lon="6.73119">
        <ele>281.32</ele>
        <time>2012-05-17T10:13:25Z</time>
      </trkpt>
      <trkpt lat="43.57803" lon="6.73083">
        <ele>282.28</ele>
        <time>2012-05-17T10:13:44Z</time>
      </trkpt>
      <trkpt lat="43.57771" lon="6.7304">
        <ele>284.69</ele>
        <time>2012-05-17T10:14:04Z</time>
      </trkpt>
      <trkpt lat="43.57743" lon="6.72999">
        <ele>286.61</ele>
        <time>2012-05-17T10:14:25Z</time>
      </trkpt>
      <trkpt lat="43.57714" lon="6.72958">
        <ele>289.49</ele>
        <time>2012-05-17T10:14:45Z</time>
      </trkpt>
      <trkpt lat="43.57676" lon="6.72916">
        <ele>291.9</ele>
        <time>2012-05-17T10:15:09Z</time>
      </trkpt>
      <trkpt lat="43.5766" lon="6.72895">
        <ele>293.34</ele>
        <time>2012-05-17T10:15:21Z</time>
      </trkpt>
      <trkpt lat="43.57636" lon="6.72866">
        <ele>294.78</ele>
        <time>2012-05-17T10:15:38Z</time>
      </trkpt>
      <trkpt lat="43.57617" lon="6.72836">
        <ele>296.7</ele>
        <time>2012-05-17T10:15:56Z</time>
      </trkpt>
      <trkpt lat="43.57614" lon="6.72828">
        <ele>297.18</ele>
        <time>2012-05-17T10:16:00Z</time>
      </trkpt>
      <trkpt lat="43.57596" lon="6.72832">
        <ele>297.18</ele>
        <time>2012-05-17T10:16:14Z</time>
      </trkpt>
      <trkpt lat="43.57585" lon="6.72886">
        <ele>298.15</ele>
        <time>2012-05-17T10:16:34Z</time>
      </trkpt>
      <trkpt lat="43.57573" lon="6.72962">
        <ele>297.67</ele>
        <time>2012-05-17T10:16:56Z</time>
      </trkpt>
      <trkpt lat="43.57578" lon="6.72989">
        <ele>297.18</ele>
        <time>2012-05-17T10:17:06Z</time>
      </trkpt>
      <trkpt lat="43.57556" lon="6.73016">
        <ele>296.7</ele>
        <time>2012-05-17T10:17:19Z</time>
      </trkpt>
      <trkpt lat="43.57537" lon="6.73051">
        <ele>295.74</ele>
        <time>2012-05-17T10:17:31Z</time>
      </trkpt>
      <trkpt lat="43.5752" lon="6.73081">
        <ele>293.82</ele>
        <time>2012-05-17T10:17:37Z</time>
      </trkpt>
      <trkpt lat="43.57487" lon="6.73124">
        <ele>293.34</ele>
        <time>2012-05-17T10:17:45Z</time>
      </trkpt>
      <trkpt lat="43.57474" lon="6.73148">
        <ele>292.86</ele>
        <time>2012-05-17T10:17:49Z</time>
      </trkpt>
      <trkpt lat="43.57447" lon="6.73167">
        <ele>291.42</ele>
        <time>2012-05-17T10:17:55Z</time>
      </trkpt>
      <trkpt lat="43.57438" lon="6.73164">
        <ele>290.94</ele>
        <time>2012-05-17T10:17:57Z</time>
      </trkpt>
      <trkpt lat="43.57373" lon="6.73134">
        <ele>289.49</ele>
        <time>2012-05-17T10:18:15Z</time>
      </trkpt>
      <trkpt lat="43.57358" lon="6.7313">
        <ele>289.49</ele>
        <time>2012-05-17T10:18:19Z</time>
      </trkpt>
      <trkpt lat="43.57332" lon="6.73132">
        <ele>287.57</ele>
        <time>2012-05-17T10:18:24Z</time>
      </trkpt>
      <trkpt lat="43.57258" lon="6.73182">
        <ele>287.09</ele>
        <time>2012-05-17T10:18:40Z</time>
      </trkpt>
      <trkpt lat="43.57237" lon="6.73228">
        <ele>286.61</ele>
        <time>2012-05-17T10:18:50Z</time>
      </trkpt>
      <trkpt lat="43.57227" lon="6.73272">
        <ele>284.69</ele>
        <time>2012-05-17T10:18:56Z</time>
      </trkpt>
      <trkpt lat="43.57217" lon="6.73298">
        <ele>283.25</ele>
        <time>2012-05-17T10:18:59Z</time>
      </trkpt>
      <trkpt lat="43.57172" lon="6.73357">
        <ele>283.73</ele>
        <time>2012-05-17T10:19:11Z</time>
      </trkpt>
      <trkpt lat="43.57141" lon="6.73385">
        <ele>285.17</ele>
        <time>2012-05-17T10:19:25Z</time>
      </trkpt>
      <trkpt lat="43.57087" lon="6.7342">
        <ele>282.28</ele>
        <time>2012-05-17T10:19:38Z</time>
      </trkpt>
      <trkpt lat="43.57067" lon="6.73441">
        <ele>281.32</ele>
        <time>2012-05-17T10:19:42Z</time>
      </trkpt>
      <trkpt lat="43.57053" lon="6.73459">
        <ele>280.36</ele>
        <time>2012-05-17T10:19:45Z</time>
      </trkpt>
      <trkpt lat="43.57034" lon="6.7351">
        <ele>276.52</ele>
        <time>2012-05-17T10:19:52Z</time>
      </trkpt>
      <trkpt lat="43.57042" lon="6.73554">
        <ele>275.07</ele>
        <time>2012-05-17T10:19:58Z</time>
      </trkpt>
      <trkpt lat="43.57054" lon="6.73566">
        <ele>274.11</ele>
        <time>2012-05-17T10:20:00Z</time>
      </trkpt>
      <trkpt lat="43.57066" lon="6.73602">
        <ele>273.63</ele>
        <time>2012-05-17T10:20:04Z</time>
      </trkpt>
      <trkpt lat="43.57075" lon="6.7367">
        <ele>272.19</ele>
        <time>2012-05-17T10:20:12Z</time>
      </trkpt>
      <trkpt lat="43.57072" lon="6.73706">
        <ele>272.19</ele>
        <time>2012-05-17T10:20:20Z</time>
      </trkpt>
      <trkpt lat="43.57067" lon="6.73731">
        <ele>271.23</ele>
        <time>2012-05-17T10:20:24Z</time>
      </trkpt>
      <trkpt lat="43.5708" lon="6.73797">
        <ele>266.9</ele>
        <time>2012-05-17T10:20:31Z</time>
      </trkpt>
      <trkpt lat="43.57082" lon="6.73808">
        <ele>266.42</ele>
        <time>2012-05-17T10:20:32Z</time>
      </trkpt>
      <trkpt lat="43.57093" lon="6.73856">
        <ele>263.54</ele>
        <time>2012-05-17T10:20:36Z</time>
      </trkpt>
      <trkpt lat="43.57092" lon="6.73914">
        <ele>260.65</ele>
        <time>2012-05-17T10:20:41Z</time>
      </trkpt>
      <trkpt lat="43.57086" lon="6.73933">
        <ele>260.17</ele>
        <time>2012-05-17T10:20:43Z</time>
      </trkpt>
      <trkpt lat="43.57095" lon="6.7397">
        <ele>258.73</ele>
        <time>2012-05-17T10:20:47Z</time>
      </trkpt>
      <trkpt lat="43.57106" lon="6.74031">
        <ele>259.21</ele>
        <time>2012-05-17T10:20:56Z</time>
      </trkpt>
      <trkpt lat="43.57119" lon="6.74106">
        <ele>260.17</ele>
        <time>2012-05-17T10:21:14Z</time>
      </trkpt>
      <trkpt lat="43.57126" lon="6.7414">
        <ele>259.21</ele>
        <time>2012-05-17T10:21:24Z</time>
      </trkpt>
      <trkpt lat="43.5713" lon="6.7416">
        <ele>258.73</ele>
        <time>2012-05-17T10:21:27Z</time>
      </trkpt>
      <trkpt lat="43.57122" lon="6.74207">
        <ele>256.81</ele>
        <time>2012-05-17T10:21:33Z</time>
      </trkpt>
      <trkpt lat="43.57115" lon="6.74221">
        <ele>255.85</ele>
        <time>2012-05-17T10:21:35Z</time>
      </trkpt>
      <trkpt lat="43.57107" lon="6.7425">
        <ele>253.93</ele>
        <time>2012-05-17T10:21:39Z</time>
      </trkpt>
      <trkpt lat="43.57101" lon="6.74313">
        <ele>252</ele>
        <time>2012-05-17T10:21:46Z</time>
      </trkpt>
      <trkpt lat="43.57104" lon="6.74356">
        <ele>253.93</ele>
        <time>2012-05-17T10:21:58Z</time>
      </trkpt>
      <trkpt lat="43.57101" lon="6.74394">
        <ele>256.81</ele>
        <time>2012-05-17T10:22:15Z</time>
      </trkpt>
      <trkpt lat="43.57111" lon="6.74412">
        <ele>259.21</ele>
        <time>2012-05-17T10:22:28Z</time>
      </trkpt>
      <trkpt lat="43.57133" lon="6.74396">
        <ele>260.65</ele>
        <time>2012-05-17T10:22:45Z</time>
      </trkpt>
      <trkpt lat="43.5715" lon="6.7441">
        <ele>263.06</ele>
        <time>2012-05-17T10:23:00Z</time>
      </trkpt>
      <trkpt lat="43.57141" lon="6.74444">
        <ele>265.94</ele>
        <time>2012-05-17T10:23:18Z</time>
      </trkpt>
      <trkpt lat="43.57127" lon="6.74475">
        <ele>268.35</ele>
        <time>2012-05-17T10:23:37Z</time>
      </trkpt>
      <trkpt lat="43.57114" lon="6.74509">
        <ele>271.23</ele>
        <time>2012-05-17T10:23:58Z</time>
      </trkpt>
      <trkpt lat="43.57098" lon="6.74534">
        <ele>273.15</ele>
        <time>2012-05-17T10:24:16Z</time>
      </trkpt>
      <trkpt lat="43.57082" lon="6.74555">
        <ele>276.04</ele>
        <time>2012-05-17T10:24:32Z</time>
      </trkpt>
      <trkpt lat="43.57063" lon="6.74587">
        <ele>277.48</ele>
        <time>2012-05-17T10:24:51Z</time>
      </trkpt>
      <trkpt lat="43.57041" lon="6.74643">
        <ele>278.44</ele>
        <time>2012-05-17T10:25:13Z</time>
      </trkpt>
      <trkpt lat="43.57031" lon="6.74691">
        <ele>279.4</ele>
        <time>2012-05-17T10:25:31Z</time>
      </trkpt>
      <trkpt lat="43.57031" lon="6.74751">
        <ele>279.88</ele>
        <time>2012-05-17T10:25:51Z</time>
      </trkpt>
      <trkpt lat="43.5703" lon="6.74804">
        <ele>280.36</ele>
        <time>2012-05-17T10:26:10Z</time>
      </trkpt>
      <trkpt lat="43.57033" lon="6.74846">
        <ele>277.96</ele>
        <time>2012-05-17T10:26:23Z</time>
      </trkpt>
      <trkpt lat="43.57023" lon="6.74883">
        <ele>277.48</ele>
        <time>2012-05-17T10:26:37Z</time>
      </trkpt>
      <trkpt lat="43.57003" lon="6.74943">
        <ele>275.07</ele>
        <time>2012-05-17T10:26:51Z</time>
      </trkpt>
      <trkpt lat="43.56994" lon="6.74963">
        <ele>273.63</ele>
        <time>2012-05-17T10:26:58Z</time>
      </trkpt>
      <trkpt lat="43.5698" lon="6.74985">
        <ele>271.23</ele>
        <time>2012-05-17T10:27:03Z</time>
      </trkpt>
      <trkpt lat="43.56964" lon="6.74998">
        <ele>270.27</ele>
        <time>2012-05-17T10:27:07Z</time>
      </trkpt>
      <trkpt lat="43.56918" lon="6.75002">
        <ele>269.31</ele>
        <time>2012-05-17T10:27:24Z</time>
      </trkpt>
      <trkpt lat="43.56894" lon="6.75002">
        <ele>267.38</ele>
        <time>2012-05-17T10:27:36Z</time>
      </trkpt>
      <trkpt lat="43.56884" lon="6.74995">
        <ele>266.9</ele>
        <time>2012-05-17T10:27:57Z</time>
      </trkpt>
      <trkpt lat="43.56854" lon="6.74955">
        <ele>263.54</ele>
        <time>2012-05-17T10:28:07Z</time>
      </trkpt>
      <trkpt lat="43.56849" lon="6.7495">
        <ele>263.06</ele>
        <time>2012-05-17T10:28:09Z</time>
      </trkpt>
      <trkpt lat="43.56836" lon="6.74977">
        <ele>261.14</ele>
        <time>2012-05-17T10:28:18Z</time>
      </trkpt>
      <trkpt lat="43.56839" lon="6.74986">
        <ele>260.17</ele>
        <time>2012-05-17T10:28:20Z</time>
      </trkpt>
      <trkpt lat="43.56862" lon="6.75029">
        <ele>256.81</ele>
        <time>2012-05-17T10:28:32Z</time>
      </trkpt>
      <trkpt lat="43.56876" lon="6.75077">
        <ele>253.44</ele>
        <time>2012-05-17T10:28:45Z</time>
      </trkpt>
      <trkpt lat="43.56896" lon="6.75096">
        <ele>251.52</ele>
        <time>2012-05-17T10:28:55Z</time>
      </trkpt>
      <trkpt lat="43.56906" lon="6.7513">
        <ele>248.16</ele>
        <time>2012-05-17T10:29:04Z</time>
      </trkpt>
      <trkpt lat="43.56892" lon="6.75163">
        <ele>245.27</ele>
        <time>2012-05-17T10:29:13Z</time>
      </trkpt>
      <trkpt lat="43.56882" lon="6.75176">
        <ele>244.79</ele>
        <time>2012-05-17T10:29:15Z</time>
      </trkpt>
      <trkpt lat="43.56857" lon="6.75205">
        <ele>243.35</ele>
        <time>2012-05-17T10:29:20Z</time>
      </trkpt>
      <trkpt lat="43.56811" lon="6.75213">
        <ele>241.43</ele>
        <time>2012-05-17T10:29:28Z</time>
      </trkpt>
      <trkpt lat="43.5678" lon="6.75211">
        <ele>241.91</ele>
        <time>2012-05-17T10:29:39Z</time>
      </trkpt>
      <trkpt lat="43.56759" lon="6.75213">
        <ele>244.31</ele>
        <time>2012-05-17T10:29:54Z</time>
      </trkpt>
      <trkpt lat="43.56728" lon="6.75217">
        <ele>246.23</ele>
        <time>2012-05-17T10:30:15Z</time>
      </trkpt>
      <trkpt lat="43.56705" lon="6.75217">
        <ele>247.68</ele>
        <time>2012-05-17T10:30:31Z</time>
      </trkpt>
      <trkpt lat="43.56678" lon="6.75218">
        <ele>249.12</ele>
        <time>2012-05-17T10:30:49Z</time>
      </trkpt>
      <trkpt lat="43.56669" lon="6.75213">
        <ele>250.08</ele>
        <time>2012-05-17T10:31:03Z</time>
      </trkpt>
      <trkpt lat="43.5667" lon="6.75212">
        <ele>250.08</ele>
        <time>2012-05-17T10:31:26Z</time>
      </trkpt>
      <trkpt lat="43.56676" lon="6.75205">
        <ele>249.12</ele>
        <time>2012-05-17T10:32:42Z</time>
      </trkpt>
      <trkpt lat="43.56675" lon="6.75206">
        <ele>249.6</ele>
        <time>2012-05-17T10:35:22Z</time>
      </trkpt>
      <trkpt lat="43.56673" lon="6.75211">
        <ele>248.64</ele>
        <time>2012-05-17T10:36:22Z</time>
      </trkpt>
      <trkpt lat="43.56662" lon="6.75218">
        <ele>248.64</ele>
        <time>2012-05-17T10:36:39Z</time>
      </trkpt>
      <trkpt lat="43.56662" lon="6.75217">
        <ele>249.12</ele>
        <time>2012-05-17T10:37:24Z</time>
      </trkpt>
      <trkpt lat="43.56662" lon="6.75213">
        <ele>249.6</ele>
        <time>2012-05-17T10:43:19Z</time>
      </trkpt>
      <trkpt lat="43.56663" lon="6.75208">
        <ele>249.6</ele>
        <time>2012-05-17T10:43:36Z</time>
      </trkpt>
      <trkpt lat="43.56665" lon="6.75209">
        <ele>249.6</ele>
        <time>2012-05-17T10:43:51Z</time>
      </trkpt>
      <trkpt lat="43.56668" lon="6.75216">
        <ele>249.12</ele>
        <time>2012-05-17T10:44:16Z</time>
      </trkpt>
      <trkpt lat="43.56669" lon="6.75218">
        <ele>249.6</ele>
        <time>2012-05-17T10:44:52Z</time>
      </trkpt>
      <trkpt lat="43.5667" lon="6.75215">
        <ele>250.08</ele>
        <time>2012-05-17T10:46:38Z</time>
      </trkpt>
      <trkpt lat="43.56669" lon="6.75215">
        <ele>250.56</ele>
        <time>2012-05-17T10:48:14Z</time>
      </trkpt>
      <trkpt lat="43.56667" lon="6.75215">
        <ele>250.08</ele>
        <time>2012-05-17T10:48:39Z</time>
      </trkpt>
      <trkpt lat="43.56666" lon="6.75217">
        <ele>250.56</ele>
        <time>2012-05-17T10:49:14Z</time>
      </trkpt>
      <trkpt lat="43.56667" lon="6.75221">
        <ele>251.04</ele>
        <time>2012-05-17T10:49:45Z</time>
      </trkpt>
      <trkpt lat="43.56666" lon="6.75223">
        <ele>251.04</ele>
        <time>2012-05-17T10:50:12Z</time>
      </trkpt>
      <trkpt lat="43.56666" lon="6.75223">
        <ele>250.56</ele>
        <time>2012-05-17T10:50:28Z</time>
      </trkpt>
      <trkpt lat="43.56656" lon="6.75226">
        <ele>250.56</ele>
        <time>2012-05-17T10:50:37Z</time>
      </trkpt>
      <trkpt lat="43.56639" lon="6.75227">
        <ele>249.12</ele>
        <time>2012-05-17T10:50:41Z</time>
      </trkpt>
      <trkpt lat="43.56614" lon="6.75261">
        <ele>246.23</ele>
        <time>2012-05-17T10:50:47Z</time>
      </trkpt>
      <trkpt lat="43.56617" lon="6.75281">
        <ele>244.31</ele>
        <time>2012-05-17T10:50:49Z</time>
      </trkpt>
      <trkpt lat="43.56613" lon="6.75314">
        <ele>242.39</ele>
        <time>2012-05-17T10:50:53Z</time>
      </trkpt>
      <trkpt lat="43.56584" lon="6.75348">
        <ele>243.35</ele>
        <time>2012-05-17T10:51:04Z</time>
      </trkpt>
      <trkpt lat="43.56594" lon="6.75376">
        <ele>246.23</ele>
        <time>2012-05-17T10:51:16Z</time>
      </trkpt>
      <trkpt lat="43.56604" lon="6.75408">
        <ele>248.64</ele>
        <time>2012-05-17T10:51:29Z</time>
      </trkpt>
      <trkpt lat="43.5659" lon="6.75448">
        <ele>251.04</ele>
        <time>2012-05-17T10:51:46Z</time>
      </trkpt>
      <trkpt lat="43.56583" lon="6.75484">
        <ele>253.44</ele>
        <time>2012-05-17T10:52:01Z</time>
      </trkpt>
      <trkpt lat="43.56586" lon="6.75525">
        <ele>256.81</ele>
        <time>2012-05-17T10:52:17Z</time>
      </trkpt>
      <trkpt lat="43.56576" lon="6.75557">
        <ele>258.73</ele>
        <time>2012-05-17T10:52:32Z</time>
      </trkpt>
      <trkpt lat="43.56571" lon="6.75585">
        <ele>260.65</ele>
        <time>2012-05-17T10:52:45Z</time>
      </trkpt>
      <trkpt lat="43.56572" lon="6.75617">
        <ele>263.06</ele>
        <time>2012-05-17T10:52:58Z</time>
      </trkpt>
      <trkpt lat="43.5657" lon="6.75655">
        <ele>264.5</ele>
        <time>2012-05-17T10:53:13Z</time>
      </trkpt>
      <trkpt lat="43.56544" lon="6.75689">
        <ele>264.98</ele>
        <time>2012-05-17T10:53:28Z</time>
      </trkpt>
      <trkpt lat="43.56541" lon="6.75693">
        <ele>264.98</ele>
        <time>2012-05-17T10:53:29Z</time>
      </trkpt>
      <trkpt lat="43.56524" lon="6.75702">
        <ele>264.02</ele>
        <time>2012-05-17T10:53:33Z</time>
      </trkpt>
      <trkpt lat="43.56458" lon="6.75704">
        <ele>261.62</ele>
        <time>2012-05-17T10:53:44Z</time>
      </trkpt>
      <trkpt lat="43.56409" lon="6.75738">
        <ele>261.62</ele>
        <time>2012-05-17T10:53:55Z</time>
      </trkpt>
      <trkpt lat="43.56376" lon="6.75791">
        <ele>264.5</ele>
        <time>2012-05-17T10:54:14Z</time>
      </trkpt>
      <trkpt lat="43.56348" lon="6.7587">
        <ele>266.42</ele>
        <time>2012-05-17T10:54:38Z</time>
      </trkpt>
      <trkpt lat="43.56327" lon="6.75914">
        <ele>268.35</ele>
        <time>2012-05-17T10:54:56Z</time>
      </trkpt>
      <trkpt lat="43.56293" lon="6.75944">
        <ele>271.71</ele>
        <time>2012-05-17T10:55:17Z</time>
      </trkpt>
      <trkpt lat="43.56271" lon="6.75949">
        <ele>274.59</ele>
        <time>2012-05-17T10:55:30Z</time>
      </trkpt>
      <trkpt lat="43.56255" lon="6.75928">
        <ele>277</ele>
        <time>2012-05-17T10:55:44Z</time>
      </trkpt>
      <trkpt lat="43.56248" lon="6.75921">
        <ele>277.96</ele>
        <time>2012-05-17T10:55:50Z</time>
      </trkpt>
      <trkpt lat="43.56245" lon="6.75916">
        <ele>277.96</ele>
        <time>2012-05-17T10:56:03Z</time>
      </trkpt>
      <trkpt lat="43.56246" lon="6.75925">
        <ele>278.92</ele>
        <time>2012-05-17T10:56:22Z</time>
      </trkpt>
      <trkpt lat="43.56245" lon="6.75924">
        <ele>278.44</ele>
        <time>2012-05-17T10:56:52Z</time>
      </trkpt>
      <trkpt lat="43.56242" lon="6.75927">
        <ele>278.44</ele>
        <time>2012-05-17T10:57:06Z</time>
      </trkpt>
      <trkpt lat="43.56248" lon="6.75926">
        <ele>278.44</ele>
        <time>2012-05-17T10:57:24Z</time>
      </trkpt>
      <trkpt lat="43.56248" lon="6.75925">
        <ele>278.92</ele>
        <time>2012-05-17T10:57:42Z</time>
      </trkpt>
      <trkpt lat="43.56255" lon="6.75918">
        <ele>277</ele>
        <time>2012-05-17T10:57:55Z</time>
      </trkpt>
      <trkpt lat="43.56254" lon="6.75919">
        <ele>277</ele>
        <time>2012-05-17T10:58:12Z</time>
      </trkpt>
      <trkpt lat="43.56254" lon="6.75917">
        <ele>277</ele>
        <time>2012-05-17T10:58:28Z</time>
      </trkpt>
      <trkpt lat="43.56255" lon="6.75918">
        <ele>277</ele>
        <time>2012-05-17T10:59:12Z</time>
      </trkpt>
      <trkpt lat="43.56253" lon="6.75922">
        <ele>276.52</ele>
        <time>2012-05-17T11:01:03Z</time>
      </trkpt>
      <trkpt lat="43.56257" lon="6.75924">
        <ele>276.52</ele>
        <time>2012-05-17T11:01:59Z</time>
      </trkpt>
      <trkpt lat="43.5625" lon="6.75919">
        <ele>276.52</ele>
        <time>2012-05-17T11:03:03Z</time>
      </trkpt>
      <trkpt lat="43.56245" lon="6.75916">
        <ele>277</ele>
        <time>2012-05-17T11:03:22Z</time>
      </trkpt>
      <trkpt lat="43.56246" lon="6.75915">
        <ele>277</ele>
        <time>2012-05-17T11:03:41Z</time>
      </trkpt>
      <trkpt lat="43.56254" lon="6.75917">
        <ele>276.52</ele>
        <time>2012-05-17T11:03:56Z</time>
      </trkpt>
      <trkpt lat="43.56254" lon="6.75921">
        <ele>276.52</ele>
        <time>2012-05-17T11:04:36Z</time>
      </trkpt>
      <trkpt lat="43.56251" lon="6.75922">
        <ele>277</ele>
        <time>2012-05-17T11:05:00Z</time>
      </trkpt>
      <trkpt lat="43.56243" lon="6.7592">
        <ele>276.52</ele>
        <time>2012-05-17T11:05:19Z</time>
      </trkpt>
      <trkpt lat="43.56242" lon="6.75919">
        <ele>277</ele>
        <time>2012-05-17T11:05:35Z</time>
      </trkpt>
      <trkpt lat="43.56212" lon="6.75931">
        <ele>275.07</ele>
        <time>2012-05-17T11:05:49Z</time>
      </trkpt>
      <trkpt lat="43.56185" lon="6.75945">
        <ele>273.63</ele>
        <time>2012-05-17T11:05:56Z</time>
      </trkpt>
      <trkpt lat="43.56145" lon="6.75941">
        <ele>271.23</ele>
        <time>2012-05-17T11:06:02Z</time>
      </trkpt>
      <trkpt lat="43.56118" lon="6.75921">
        <ele>269.79</ele>
        <time>2012-05-17T11:06:07Z</time>
      </trkpt>
      <trkpt lat="43.56081" lon="6.75861">
        <ele>270.75</ele>
        <time>2012-05-17T11:06:19Z</time>
      </trkpt>
      <trkpt lat="43.56022" lon="6.75803">
        <ele>270.75</ele>
        <time>2012-05-17T11:06:37Z</time>
      </trkpt>
      <trkpt lat="43.56018" lon="6.758">
        <ele>270.75</ele>
        <time>2012-05-17T11:06:38Z</time>
      </trkpt>
      <trkpt lat="43.55992" lon="6.75812">
        <ele>269.31</ele>
        <time>2012-05-17T11:06:45Z</time>
      </trkpt>
      <trkpt lat="43.55985" lon="6.75837">
        <ele>267.86</ele>
        <time>2012-05-17T11:06:48Z</time>
      </trkpt>
      <trkpt lat="43.55975" lon="6.759">
        <ele>264.02</ele>
        <time>2012-05-17T11:06:54Z</time>
      </trkpt>
      <trkpt lat="43.55967" lon="6.75944">
        <ele>263.06</ele>
        <time>2012-05-17T11:06:58Z</time>
      </trkpt>
      <trkpt lat="43.55945" lon="6.76006">
        <ele>259.69</ele>
        <time>2012-05-17T11:07:05Z</time>
      </trkpt>
      <trkpt lat="43.55939" lon="6.76024">
        <ele>258.73</ele>
        <time>2012-05-17T11:07:07Z</time>
      </trkpt>
      <trkpt lat="43.55937" lon="6.76033">
        <ele>257.77</ele>
        <time>2012-05-17T11:07:08Z</time>
      </trkpt>
      <trkpt lat="43.55914" lon="6.76052">
        <ele>253.44</ele>
        <time>2012-05-17T11:07:13Z</time>
      </trkpt>
      <trkpt lat="43.55902" lon="6.76039">
        <ele>252</ele>
        <time>2012-05-17T11:07:15Z</time>
      </trkpt>
      <trkpt lat="43.55887" lon="6.76014">
        <ele>250.56</ele>
        <time>2012-05-17T11:07:18Z</time>
      </trkpt>
      <trkpt lat="43.55848" lon="6.76008">
        <ele>249.12</ele>
        <time>2012-05-17T11:07:25Z</time>
      </trkpt>
      <trkpt lat="43.55842" lon="6.76019">
        <ele>249.6</ele>
        <time>2012-05-17T11:07:27Z</time>
      </trkpt>
      <trkpt lat="43.55807" lon="6.76064">
        <ele>252.96</ele>
        <time>2012-05-17T11:07:41Z</time>
      </trkpt>
      <trkpt lat="43.5577" lon="6.76044">
        <ele>255.85</ele>
        <time>2012-05-17T11:07:55Z</time>
      </trkpt>
      <trkpt lat="43.55731" lon="6.76006">
        <ele>258.73</ele>
        <time>2012-05-17T11:08:13Z</time>
      </trkpt>
      <trkpt lat="43.55708" lon="6.75984">
        <ele>262.1</ele>
        <time>2012-05-17T11:08:26Z</time>
      </trkpt>
      <trkpt lat="43.55679" lon="6.75985">
        <ele>264.02</ele>
        <time>2012-05-17T11:08:41Z</time>
      </trkpt>
      <trkpt lat="43.55638" lon="6.75991">
        <ele>265.94</ele>
        <time>2012-05-17T11:09:01Z</time>
      </trkpt>
      <trkpt lat="43.55596" lon="6.76002">
        <ele>268.35</ele>
        <time>2012-05-17T11:09:20Z</time>
      </trkpt>
      <trkpt lat="43.55559" lon="6.76014">
        <ele>268.35</ele>
        <time>2012-05-17T11:09:32Z</time>
      </trkpt>
      <trkpt lat="43.5555" lon="6.76045">
        <ele>267.38</ele>
        <time>2012-05-17T11:09:38Z</time>
      </trkpt>
      <trkpt lat="43.55553" lon="6.76113">
        <ele>264.5</ele>
        <time>2012-05-17T11:09:47Z</time>
      </trkpt>
      <trkpt lat="43.55539" lon="6.76158">
        <ele>262.1</ele>
        <time>2012-05-17T11:09:53Z</time>
      </trkpt>
      <trkpt lat="43.55506" lon="6.76187">
        <ele>258.73</ele>
        <time>2012-05-17T11:09:59Z</time>
      </trkpt>
      <trkpt lat="43.55495" lon="6.76198">
        <ele>258.25</ele>
        <time>2012-05-17T11:10:01Z</time>
      </trkpt>
      <trkpt lat="43.5549" lon="6.76204">
        <ele>257.77</ele>
        <time>2012-05-17T11:10:02Z</time>
      </trkpt>
      <trkpt lat="43.5546" lon="6.76216">
        <ele>253.93</ele>
        <time>2012-05-17T11:10:07Z</time>
      </trkpt>
      <trkpt lat="43.55444" lon="6.76208">
        <ele>252.96</ele>
        <time>2012-05-17T11:10:09Z</time>
      </trkpt>
      <trkpt lat="43.55428" lon="6.76201">
        <ele>251.52</ele>
        <time>2012-05-17T11:10:11Z</time>
      </trkpt>
      <trkpt lat="43.55382" lon="6.76198">
        <ele>247.68</ele>
        <time>2012-05-17T11:10:17Z</time>
      </trkpt>
      <trkpt lat="43.55362" lon="6.76206">
        <ele>246.23</ele>
        <time>2012-05-17T11:10:20Z</time>
      </trkpt>
      <trkpt lat="43.55356" lon="6.76211">
        <ele>245.75</ele>
        <time>2012-05-17T11:10:21Z</time>
      </trkpt>
      <trkpt lat="43.55329" lon="6.76237">
        <ele>242.87</ele>
        <time>2012-05-17T11:10:26Z</time>
      </trkpt>
      <trkpt lat="43.55318" lon="6.76257">
        <ele>241.91</ele>
        <time>2012-05-17T11:10:30Z</time>
      </trkpt>
      <trkpt lat="43.55305" lon="6.76299">
        <ele>239.99</ele>
        <time>2012-05-17T11:10:35Z</time>
      </trkpt>
      <trkpt lat="43.553" lon="6.76343">
        <ele>237.58</ele>
        <time>2012-05-17T11:10:39Z</time>
      </trkpt>
      <trkpt lat="43.55289" lon="6.76406">
        <ele>234.22</ele>
        <time>2012-05-17T11:10:45Z</time>
      </trkpt>
      <trkpt lat="43.55261" lon="6.76434">
        <ele>230.85</ele>
        <time>2012-05-17T11:10:50Z</time>
      </trkpt>
      <trkpt lat="43.55229" lon="6.76436">
        <ele>228.93</ele>
        <time>2012-05-17T11:10:54Z</time>
      </trkpt>
      <trkpt lat="43.55189" lon="6.76483">
        <ele>224.61</ele>
        <time>2012-05-17T11:11:01Z</time>
      </trkpt>
      <trkpt lat="43.55165" lon="6.76503">
        <ele>221.72</ele>
        <time>2012-05-17T11:11:09Z</time>
      </trkpt>
      <trkpt lat="43.55149" lon="6.76529">
        <ele>218.84</ele>
        <time>2012-05-17T11:11:22Z</time>
      </trkpt>
      <trkpt lat="43.55152" lon="6.76534">
        <ele>218.84</ele>
        <time>2012-05-17T11:11:35Z</time>
      </trkpt>
      <trkpt lat="43.55152" lon="6.76537">
        <ele>218.36</ele>
        <time>2012-05-17T11:11:55Z</time>
      </trkpt>
      <trkpt lat="43.55149" lon="6.76539">
        <ele>217.4</ele>
        <time>2012-05-17T11:12:17Z</time>
      </trkpt>
      <trkpt lat="43.55152" lon="6.7654">
        <ele>218.36</ele>
        <time>2012-05-17T11:12:30Z</time>
      </trkpt>
      <trkpt lat="43.55149" lon="6.7654">
        <ele>217.88</ele>
        <time>2012-05-17T11:13:05Z</time>
      </trkpt>
      <trkpt lat="43.55152" lon="6.76538">
        <ele>217.4</ele>
        <time>2012-05-17T11:14:28Z</time>
      </trkpt>
      <trkpt lat="43.55152" lon="6.76537">
        <ele>217.88</ele>
        <time>2012-05-17T11:14:50Z</time>
      </trkpt>
      <trkpt lat="43.55154" lon="6.76534">
        <ele>218.36</ele>
        <time>2012-05-17T11:15:02Z</time>
      </trkpt>
      <trkpt lat="43.55154" lon="6.76535">
        <ele>217.88</ele>
        <time>2012-05-17T11:15:15Z</time>
      </trkpt>
      <trkpt lat="43.55167" lon="6.76582">
        <ele>215.47</ele>
        <time>2012-05-17T11:15:27Z</time>
      </trkpt>
      <trkpt lat="43.55167" lon="6.76636">
        <ele>213.55</ele>
        <time>2012-05-17T11:15:34Z</time>
      </trkpt>
      <trkpt lat="43.55174" lon="6.76702">
        <ele>210.19</ele>
        <time>2012-05-17T11:15:42Z</time>
      </trkpt>
      <trkpt lat="43.55179" lon="6.76727">
        <ele>209.22</ele>
        <time>2012-05-17T11:15:46Z</time>
      </trkpt>
      <trkpt lat="43.55191" lon="6.7673">
        <ele>206.82</ele>
        <time>2012-05-17T11:15:50Z</time>
      </trkpt>
      <trkpt lat="43.55209" lon="6.7672">
        <ele>205.86</ele>
        <time>2012-05-17T11:15:54Z</time>
      </trkpt>
      <trkpt lat="43.55236" lon="6.76728">
        <ele>203.94</ele>
        <time>2012-05-17T11:16:00Z</time>
      </trkpt>
      <trkpt lat="43.5525" lon="6.76799">
        <ele>200.57</ele>
        <time>2012-05-17T11:16:09Z</time>
      </trkpt>
      <trkpt lat="43.55251" lon="6.76808">
        <ele>200.09</ele>
        <time>2012-05-17T11:16:10Z</time>
      </trkpt>
      <trkpt lat="43.55253" lon="6.76842">
        <ele>196.73</ele>
        <time>2012-05-17T11:16:14Z</time>
      </trkpt>
      <trkpt lat="43.55268" lon="6.7687">
        <ele>193.36</ele>
        <time>2012-05-17T11:16:19Z</time>
      </trkpt>
      <trkpt lat="43.55288" lon="6.76859">
        <ele>191.92</ele>
        <time>2012-05-17T11:16:23Z</time>
      </trkpt>
      <trkpt lat="43.55297" lon="6.76846">
        <ele>191.44</ele>
        <time>2012-05-17T11:16:25Z</time>
      </trkpt>
      <trkpt lat="43.5532" lon="6.76832">
        <ele>190</ele>
        <time>2012-05-17T11:16:29Z</time>
      </trkpt>
      <trkpt lat="43.5534" lon="6.76818">
        <ele>187.59</ele>
        <time>2012-05-17T11:16:33Z</time>
      </trkpt>
      <trkpt lat="43.55347" lon="6.76802">
        <ele>187.11</ele>
        <time>2012-05-17T11:16:35Z</time>
      </trkpt>
      <trkpt lat="43.55386" lon="6.7678">
        <ele>184.71</ele>
        <time>2012-05-17T11:16:43Z</time>
      </trkpt>
      <trkpt lat="43.55398" lon="6.76816">
        <ele>182.79</ele>
        <time>2012-05-17T11:16:48Z</time>
      </trkpt>
      <trkpt lat="43.554" lon="6.76854">
        <ele>178.94</ele>
        <time>2012-05-17T11:16:53Z</time>
      </trkpt>
      <trkpt lat="43.554" lon="6.76861">
        <ele>177.98</ele>
        <time>2012-05-17T11:16:54Z</time>
      </trkpt>
      <trkpt lat="43.55394" lon="6.769">
        <ele>175.1</ele>
        <time>2012-05-17T11:16:59Z</time>
      </trkpt>
      <trkpt lat="43.55388" lon="6.76915">
        <ele>173.66</ele>
        <time>2012-05-17T11:17:01Z</time>
      </trkpt>
      <trkpt lat="43.55384" lon="6.7693">
        <ele>172.69</ele>
        <time>2012-05-17T11:17:03Z</time>
      </trkpt>
      <trkpt lat="43.55352" lon="6.76952">
        <ele>170.29</ele>
        <time>2012-05-17T11:17:10Z</time>
      </trkpt>
      <trkpt lat="43.55335" lon="6.76964">
        <ele>166.93</ele>
        <time>2012-05-17T11:17:14Z</time>
      </trkpt>
      <trkpt lat="43.55329" lon="6.76994">
        <ele>165.48</ele>
        <time>2012-05-17T11:17:18Z</time>
      </trkpt>
      <trkpt lat="43.55322" lon="6.77049">
        <ele>162.12</ele>
        <time>2012-05-17T11:17:24Z</time>
      </trkpt>
      <trkpt lat="43.55318" lon="6.77068">
        <ele>160.68</ele>
        <time>2012-05-17T11:17:26Z</time>
      </trkpt>
      <trkpt lat="43.55317" lon="6.77084">
        <ele>159.72</ele>
        <time>2012-05-17T11:17:28Z</time>
      </trkpt>
      <trkpt lat="43.55326" lon="6.77098">
        <ele>158.27</ele>
        <time>2012-05-17T11:17:31Z</time>
      </trkpt>
      <trkpt lat="43.5536" lon="6.77117">
        <ele>156.83</ele>
        <time>2012-05-17T11:17:37Z</time>
      </trkpt>
      <trkpt lat="43.55377" lon="6.77163">
        <ele>153.47</ele>
        <time>2012-05-17T11:17:44Z</time>
      </trkpt>
      <trkpt lat="43.55377" lon="6.77178">
        <ele>152.03</ele>
        <time>2012-05-17T11:17:46Z</time>
      </trkpt>
      <trkpt lat="43.55399" lon="6.77234">
        <ele>149.14</ele>
        <time>2012-05-17T11:17:54Z</time>
      </trkpt>
      <trkpt lat="43.55409" lon="6.77253">
        <ele>148.18</ele>
        <time>2012-05-17T11:17:57Z</time>
      </trkpt>
      <trkpt lat="43.55428" lon="6.77282">
        <ele>145.3</ele>
        <time>2012-05-17T11:18:02Z</time>
      </trkpt>
      <trkpt lat="43.55448" lon="6.77292">
        <ele>143.85</ele>
        <time>2012-05-17T11:18:06Z</time>
      </trkpt>
      <trkpt lat="43.55468" lon="6.77297">
        <ele>141.45</ele>
        <time>2012-05-17T11:18:10Z</time>
      </trkpt>
      <trkpt lat="43.55479" lon="6.77295">
        <ele>140.97</ele>
        <time>2012-05-17T11:18:12Z</time>
      </trkpt>
      <trkpt lat="43.55501" lon="6.77311">
        <ele>138.57</ele>
        <time>2012-05-17T11:18:17Z</time>
      </trkpt>
      <trkpt lat="43.5551" lon="6.77318">
        <ele>137.61</ele>
        <time>2012-05-17T11:18:19Z</time>
      </trkpt>
      <trkpt lat="43.55527" lon="6.77332">
        <ele>134.72</ele>
        <time>2012-05-17T11:18:26Z</time>
      </trkpt>
      <trkpt lat="43.55517" lon="6.77335">
        <ele>134.24</ele>
        <time>2012-05-17T11:18:29Z</time>
      </trkpt>
      <trkpt lat="43.55505" lon="6.7733">
        <ele>132.8</ele>
        <time>2012-05-17T11:18:32Z</time>
      </trkpt>
      <trkpt lat="43.55496" lon="6.77326">
        <ele>132.32</ele>
        <time>2012-05-17T11:18:34Z</time>
      </trkpt>
      <trkpt lat="43.55477" lon="6.7733">
        <ele>130.88</ele>
        <time>2012-05-17T11:18:38Z</time>
      </trkpt>
      <trkpt lat="43.55455" lon="6.77347">
        <ele>129.43</ele>
        <time>2012-05-17T11:18:42Z</time>
      </trkpt>
      <trkpt lat="43.55429" lon="6.77346">
        <ele>127.51</ele>
        <time>2012-05-17T11:18:46Z</time>
      </trkpt>
      <trkpt lat="43.55396" lon="6.77368">
        <ele>125.11</ele>
        <time>2012-05-17T11:18:52Z</time>
      </trkpt>
      <trkpt lat="43.5537" lon="6.7735">
        <ele>122.71</ele>
        <time>2012-05-17T11:18:58Z</time>
      </trkpt>
      <trkpt lat="43.55365" lon="6.77351">
        <ele>122.71</ele>
        <time>2012-05-17T11:18:59Z</time>
      </trkpt>
      <trkpt lat="43.55354" lon="6.77362">
        <ele>121.74</ele>
        <time>2012-05-17T11:19:01Z</time>
      </trkpt>
      <trkpt lat="43.55317" lon="6.77366">
        <ele>118.86</ele>
        <time>2012-05-17T11:19:07Z</time>
      </trkpt>
      <trkpt lat="43.55297" lon="6.77374">
        <ele>116.94</ele>
        <time>2012-05-17T11:19:11Z</time>
      </trkpt>
      <trkpt lat="43.55282" lon="6.77394">
        <ele>113.09</ele>
        <time>2012-05-17T11:19:15Z</time>
      </trkpt>
      <trkpt lat="43.5527" lon="6.77407">
        <ele>111.17</ele>
        <time>2012-05-17T11:19:18Z</time>
      </trkpt>
      <trkpt lat="43.55255" lon="6.77425">
        <ele>108.77</ele>
        <time>2012-05-17T11:19:23Z</time>
      </trkpt>
      <trkpt lat="43.55259" lon="6.77444">
        <ele>108.29</ele>
        <time>2012-05-17T11:19:29Z</time>
      </trkpt>
      <trkpt lat="43.55262" lon="6.77447">
        <ele>107.81</ele>
        <time>2012-05-17T11:19:32Z</time>
      </trkpt>
      <trkpt lat="43.55259" lon="6.77438">
        <ele>107.81</ele>
        <time>2012-05-17T11:19:39Z</time>
      </trkpt>
      <trkpt lat="43.5526" lon="6.77444">
        <ele>107.32</ele>
        <time>2012-05-17T11:19:43Z</time>
      </trkpt>
      <trkpt lat="43.55264" lon="6.77459">
        <ele>107.81</ele>
        <time>2012-05-17T11:19:49Z</time>
      </trkpt>
      <trkpt lat="43.55288" lon="6.775">
        <ele>110.69</ele>
        <time>2012-05-17T11:20:09Z</time>
      </trkpt>
      <trkpt lat="43.55311" lon="6.77513">
        <ele>113.09</ele>
        <time>2012-05-17T11:20:24Z</time>
      </trkpt>
      <trkpt lat="43.55348" lon="6.77508">
        <ele>115.01</ele>
        <time>2012-05-17T11:20:44Z</time>
      </trkpt>
      <trkpt lat="43.55371" lon="6.7754">
        <ele>116.46</ele>
        <time>2012-05-17T11:21:00Z</time>
      </trkpt>
      <trkpt lat="43.55401" lon="6.77599">
        <ele>118.86</ele>
        <time>2012-05-17T11:21:21Z</time>
      </trkpt>
      <trkpt lat="43.55443" lon="6.77671">
        <ele>120.3</ele>
        <time>2012-05-17T11:21:43Z</time>
      </trkpt>
      <trkpt lat="43.55483" lon="6.77681">
        <ele>120.3</ele>
        <time>2012-05-17T11:21:56Z</time>
      </trkpt>
      <trkpt lat="43.55514" lon="6.77726">
        <ele>120.3</ele>
        <time>2012-05-17T11:22:09Z</time>
      </trkpt>
      <trkpt lat="43.55513" lon="6.77776">
        <ele>120.3</ele>
        <time>2012-05-17T11:22:23Z</time>
      </trkpt>
      <trkpt lat="43.55476" lon="6.77785">
        <ele>122.22</ele>
        <time>2012-05-17T11:22:38Z</time>
      </trkpt>
      <trkpt lat="43.55444" lon="6.77767">
        <ele>124.15</ele>
        <time>2012-05-17T11:22:53Z</time>
      </trkpt>
      <trkpt lat="43.55414" lon="6.77748">
        <ele>126.55</ele>
        <time>2012-05-17T11:23:09Z</time>
      </trkpt>
      <trkpt lat="43.55386" lon="6.77754">
        <ele>127.99</ele>
        <time>2012-05-17T11:23:23Z</time>
      </trkpt>
      <trkpt lat="43.5536" lon="6.77738">
        <ele>129.92</ele>
        <time>2012-05-17T11:23:40Z</time>
      </trkpt>
      <trkpt lat="43.55326" lon="6.77716">
        <ele>132.32</ele>
        <time>2012-05-17T11:23:59Z</time>
      </trkpt>
      <trkpt lat="43.55294" lon="6.77723">
        <ele>133.76</ele>
        <time>2012-05-17T11:24:16Z</time>
      </trkpt>
      <trkpt lat="43.55277" lon="6.77757">
        <ele>134.24</ele>
        <time>2012-05-17T11:24:32Z</time>
      </trkpt>
      <trkpt lat="43.55259" lon="6.77807">
        <ele>131.36</ele>
        <time>2012-05-17T11:24:43Z</time>
      </trkpt>
      <trkpt lat="43.55252" lon="6.77912">
        <ele>129.43</ele>
        <time>2012-05-17T11:24:56Z</time>
      </trkpt>
      <trkpt lat="43.5524" lon="6.77941">
        <ele>128.95</ele>
        <time>2012-05-17T11:25:00Z</time>
      </trkpt>
      <trkpt lat="43.55196" lon="6.78004">
        <ele>125.59</ele>
        <time>2012-05-17T11:25:09Z</time>
      </trkpt>
      <trkpt lat="43.55181" lon="6.78072">
        <ele>122.22</ele>
        <time>2012-05-17T11:25:15Z</time>
      </trkpt>
      <trkpt lat="43.55182" lon="6.78098">
        <ele>121.26</ele>
        <time>2012-05-17T11:25:17Z</time>
      </trkpt>
      <trkpt lat="43.55183" lon="6.78136">
        <ele>118.86</ele>
        <time>2012-05-17T11:25:20Z</time>
      </trkpt>
      <trkpt lat="43.55191" lon="6.7819">
        <ele>115.01</ele>
        <time>2012-05-17T11:25:24Z</time>
      </trkpt>
      <trkpt lat="43.55185" lon="6.7823">
        <ele>113.09</ele>
        <time>2012-05-17T11:25:27Z</time>
      </trkpt>
      <trkpt lat="43.55178" lon="6.78252">
        <ele>111.17</ele>
        <time>2012-05-17T11:25:29Z</time>
      </trkpt>
      <trkpt lat="43.55165" lon="6.78289">
        <ele>109.25</ele>
        <time>2012-05-17T11:25:34Z</time>
      </trkpt>
      <trkpt lat="43.55152" lon="6.78346">
        <ele>109.73</ele>
        <time>2012-05-17T11:25:47Z</time>
      </trkpt>
      <trkpt lat="43.55141" lon="6.7839">
        <ele>112.61</ele>
        <time>2012-05-17T11:26:03Z</time>
      </trkpt>
      <trkpt lat="43.55131" lon="6.78422">
        <ele>115.98</ele>
        <time>2012-05-17T11:26:16Z</time>
      </trkpt>
      <trkpt lat="43.55113" lon="6.78467">
        <ele>118.86</ele>
        <time>2012-05-17T11:26:35Z</time>
      </trkpt>
      <trkpt lat="43.55107" lon="6.7847">
        <ele>119.34</ele>
        <time>2012-05-17T11:26:38Z</time>
      </trkpt>
      <trkpt lat="43.55093" lon="6.78507">
        <ele>120.78</ele>
        <time>2012-05-17T11:26:52Z</time>
      </trkpt>
      <trkpt lat="43.5507" lon="6.78578">
        <ele>122.71</ele>
        <time>2012-05-17T11:27:13Z</time>
      </trkpt>
      <trkpt lat="43.55056" lon="6.78646">
        <ele>124.15</ele>
        <time>2012-05-17T11:27:32Z</time>
      </trkpt>
      <trkpt lat="43.55026" lon="6.78715">
        <ele>126.07</ele>
        <time>2012-05-17T11:27:53Z</time>
      </trkpt>
      <trkpt lat="43.54983" lon="6.78775">
        <ele>127.99</ele>
        <time>2012-05-17T11:28:15Z</time>
      </trkpt>
      <trkpt lat="43.54963" lon="6.7886">
        <ele>130.88</ele>
        <time>2012-05-17T11:28:38Z</time>
      </trkpt>
      <trkpt lat="43.54979" lon="6.78928">
        <ele>131.36</ele>
        <time>2012-05-17T11:28:55Z</time>
      </trkpt>
      <trkpt lat="43.55013" lon="6.78993">
        <ele>132.8</ele>
        <time>2012-05-17T11:29:15Z</time>
      </trkpt>
      <trkpt lat="43.55064" lon="6.7903">
        <ele>133.76</ele>
        <time>2012-05-17T11:29:34Z</time>
      </trkpt>
      <trkpt lat="43.5512" lon="6.79066">
        <ele>135.68</ele>
        <time>2012-05-17T11:29:55Z</time>
      </trkpt>
      <trkpt lat="43.55164" lon="6.79112">
        <ele>137.61</ele>
        <time>2012-05-17T11:30:14Z</time>
      </trkpt>
      <trkpt lat="43.55195" lon="6.79196">
        <ele>140.49</ele>
        <time>2012-05-17T11:30:39Z</time>
      </trkpt>
      <trkpt lat="43.552" lon="6.79242">
        <ele>142.89</ele>
        <time>2012-05-17T11:30:57Z</time>
      </trkpt>
      <trkpt lat="43.55207" lon="6.79283">
        <ele>146.26</ele>
        <time>2012-05-17T11:31:14Z</time>
      </trkpt>
      <trkpt lat="43.55215" lon="6.79327">
        <ele>149.14</ele>
        <time>2012-05-17T11:31:31Z</time>
      </trkpt>
      <trkpt lat="43.55213" lon="6.79363">
        <ele>152.03</ele>
        <time>2012-05-17T11:31:46Z</time>
      </trkpt>
      <trkpt lat="43.55202" lon="6.7941">
        <ele>155.39</ele>
        <time>2012-05-17T11:32:05Z</time>
      </trkpt>
      <trkpt lat="43.55195" lon="6.79453">
        <ele>156.35</ele>
        <time>2012-05-17T11:32:20Z</time>
      </trkpt>
      <trkpt lat="43.55202" lon="6.79457">
        <ele>156.35</ele>
        <time>2012-05-17T11:32:27Z</time>
      </trkpt>
      <trkpt lat="43.55213" lon="6.79429">
        <ele>156.35</ele>
        <time>2012-05-17T11:32:37Z</time>
      </trkpt>
    </trkseg>
  </trk>
</gpx>